M I D A S
Marine Information and Data Acquisition System
Tripno 2000 of the Zeeleeuw from 2010-12-07 07:11:42 to 2010-12-07 15:12:22
Back to CruiseResearch ActivitiesStationsMapUnderway DataData graphs

EquipmentUnitsComment
TimeDGPSUTC
LatitudeDGPSDM.mWGS84
LongitudeDGPSDM.mWGS84
TemperatureSBE03/SBE38deg celciusITS90
ConductivitySBE21S/mITS90
SalinitySBE21 Practical Salinity Units
ChlorophylAChelsea fluorimeterg/lCalibrated in Aceton
Missing or incorrect values are displayed as -999
Sea surface data collected by the RV Zeeleeuw from 2010-12-07 07:20:27 to 2010-12-07 15:10:41
                                                                                    Next 1000 lines
Time Latitude Longitude Temperature Conductivity Salinity ChlorophylA
2010-12-07 07:20:37 51°13.66 2°55.958 12.8785 2.125531 15.511978 -0.164791
2010-12-07 07:20:42 51°13.659 2°55.958 12.8781 2.125531 15.511978 -0.199615
2010-12-07 07:20:47 51°13.659 2°55.958 12.877 2.125426 15.510854 -0.164791
2010-12-07 07:20:52 51°13.659 2°55.958 12.8765 2.125426 15.510854 -0.164791
2010-12-07 07:20:57 51°13.659 2°55.958 12.8763 2.125426 15.510854 -0.164791
2010-12-07 07:21:02 51°13.659 2°55.958 12.8774 2.125426 15.51114 -0.199615
2010-12-07 07:21:07 51°13.659 2°55.958 12.8771 2.125426 15.510854 -0.164791
2010-12-07 07:21:12 51°13.659 2°55.958 12.8773 2.125426 15.51114 -0.199615
2010-12-07 07:21:17 51°13.659 2°55.958 12.8784 2.125426 15.510854 -0.164791
2010-12-07 07:21:22 51°13.659 2°55.958 12.878 2.125426 15.51114 -0.164791
2010-12-07 07:21:27 51°13.659 2°55.958 12.8742 2.125426 15.51114 -0.164791
2010-12-07 07:21:32 51°13.659 2°55.958 12.874 2.125426 15.510854 -0.164791
2010-12-07 07:21:37 51°13.659 2°55.959 12.8705 2.125426 15.510854 -0.199615
2010-12-07 07:21:42 51°13.66 2°55.959 12.7937 2.125426 15.510854 -0.199615
2010-12-07 07:21:47 51°13.66 2°55.959 12.7653 2.125426 15.510854 -0.199615
2010-12-07 07:21:52 51°13.661 2°55.958 12.7075 2.12532 15.510302 -0.164791
2010-12-07 07:21:57 51°13.661 2°55.956 12.4292 2.12532 15.510302 -0.164791
2010-12-07 07:22:02 51°13.662 2°55.952 12.713 2.125426 15.51114 -0.164791
2010-12-07 07:22:07 51°13.663 2°55.948 12.6596 2.125741 15.513082 -0.199615
2010-12-07 07:22:12 51°13.664 2°55.942 12.6867 2.125215 15.510035 -0.199615
2010-12-07 07:22:18 51°13.666 2°55.934 12.717 2.125215 15.510892 -0.199615
2010-12-07 07:22:24 51°13.668 2°55.926 12.7211 2.125531 15.512263 -0.199615
2010-12-07 07:22:29 51°13.67 2°55.918 12.7252 2.125531 15.512263 -0.199615
2010-12-07 07:22:35 51°13.673 2°55.908 12.735 2.12532 15.511159 -0.199615
2010-12-07 07:22:41 51°13.674 2°55.898 12.7252 2.125531 15.512263 -0.199615
2010-12-07 07:22:45 51°13.676 2°55.892 12.7341 2.12532 15.510873 -0.164791
2010-12-07 07:22:51 51°13.678 2°55.881 12.7332 2.125426 15.511711 -0.164791
2010-12-07 07:22:56 51°13.68 2°55.872 12.7314 2.12532 15.510873 -0.164791
2010-12-07 07:23:01 51°13.681 2°55.863 12.7349 2.12532 15.510873 -0.164791
2010-12-07 07:23:06 51°13.682 2°55.853 12.7502 2.12532 15.51173 -0.164791
2010-12-07 07:23:11 51°13.683 2°55.844 12.7582 2.125426 15.512568 -0.164791
2010-12-07 07:23:16 51°13.684 2°55.835 12.7562 2.125426 15.512853 -0.199615
2010-12-07 07:23:21 51°13.686 2°55.826 12.7602 2.12532 15.512015 -0.199615
2010-12-07 07:23:25 51°13.686 2°55.818 12.7621 2.12532 15.51173 -0.164791
2010-12-07 07:23:31 51°13.687 2°55.808 12.7583 2.12532 15.51173 -0.164791
2010-12-07 07:23:36 51°13.688 2°55.799 12.7581 2.12532 15.510873 -0.164791
2010-12-07 07:23:41 51°13.688 2°55.791 12.7597 2.125215 15.510321 -0.199615
2010-12-07 07:23:45 51°13.688 2°55.784 12.7627 2.12532 15.511159 -0.164791
2010-12-07 07:23:50 51°13.688 2°55.776 12.7612 2.125215 15.510606 -0.164791
2010-12-07 07:23:55 51°13.688 2°55.769 12.7624 2.12532 15.51173 -0.129967
2010-12-07 07:24:01 51°13.687 2°55.76 12.7631 2.12532 15.51173 -0.129967
2010-12-07 07:24:05 51°13.687 2°55.755 12.7663 2.125215 15.510892 -0.199615
2010-12-07 07:24:10 51°13.686 2°55.749 12.7733 2.12532 15.51173 -0.164791
2010-12-07 07:24:15 51°13.686 2°55.743 12.7858 2.12532 15.511444 -0.199615
2010-12-07 07:24:20 51°13.685 2°55.739 12.7926 2.125215 15.510606 -0.164791
2010-12-07 07:24:25 51°13.685 2°55.737 12.7655 2.12511 15.511767 -0.164791
2010-12-07 07:24:29 51°13.685 2°55.737 12.7376 2.12511 15.511767 -0.164791
2010-12-07 07:24:34 51°13.685 2°55.736 12.7479 2.125321 15.514014 -0.199615
2010-12-07 07:24:39 51°13.686 2°55.735 12.7407 2.125426 15.512568 -0.164791
2010-12-07 07:24:44 51°13.686 2°55.735 12.745 2.12511 15.509483 -0.199615
2010-12-07 07:24:49 51°13.687 2°55.734 12.7376 2.12511 15.508341 -0.164791
2010-12-07 07:24:54 51°13.688 2°55.734 12.7463 2.125005 15.507218 -0.199615
2010-12-07 07:24:59 51°13.689 2°55.734 12.7422 2.125005 15.507218 -0.199615
2010-12-07 07:25:03 51°13.69 2°55.734 12.7472 2.125005 15.506932 -0.199615
2010-12-07 07:25:09 51°13.691 2°55.734 12.7452 2.12511 15.50777 -0.199615
2010-12-07 07:25:13 51°13.692 2°55.733 12.748 2.125005 15.507218 -0.164791
2010-12-07 07:25:18 51°13.694 2°55.733 12.7455 2.12511 15.508055 -0.164791
2010-12-07 07:25:23 51°13.695 2°55.733 12.7468 2.125005 15.507503 -0.164791
2010-12-07 07:25:28 51°13.698 2°55.732 12.7475 2.125005 15.507503 -0.164791
2010-12-07 07:25:33 51°13.7 2°55.732 12.745 2.125005 15.507218 -0.199615
2010-12-07 07:25:37 51°13.701 2°55.731 12.7405 2.125005 15.507218 -0.164791
2010-12-07 07:25:42 51°13.704 2°55.73 12.7393 2.125005 15.506647 -0.164791
2010-12-07 07:25:47 51°13.706 2°55.728 12.7409 2.12511 15.507199 -0.164791
2010-12-07 07:25:52 51°13.709 2°55.727 12.7434 2.125005 15.505791 -0.199615
2010-12-07 07:25:57 51°13.711 2°55.725 12.7452 2.125005 15.505791 -0.199615
2010-12-07 07:26:02 51°13.714 2°55.723 12.7448 2.125005 15.506076 -0.164791
2010-12-07 07:26:07 51°13.716 2°55.721 12.7472 2.125005 15.505791 -0.164791
2010-12-07 07:26:12 51°13.719 2°55.718 12.7462 2.125005 15.505791 -0.164791
2010-12-07 07:26:17 51°13.723 2°55.714 12.7466 2.1249 15.504953 -0.199615
2010-12-07 07:26:22 51°13.726 2°55.711 12.747 2.1249 15.505238 -0.164791
2010-12-07 07:26:27 51°13.73 2°55.708 12.7479 2.1249 15.505238 -0.164791
2010-12-07 07:26:32 51°13.734 2°55.704 12.7301 2.125005 15.506361 -0.199615
2010-12-07 07:26:37 51°13.738 2°55.701 12.7302 2.125005 15.506361 -0.199615
2010-12-07 07:26:41 51°13.741 2°55.698 12.7317 2.1249 15.505524 -0.199615
2010-12-07 07:26:47 51°13.748 2°55.694 12.7212 2.125005 15.506361 -0.164791
2010-12-07 07:26:52 51°13.753 2°55.689 12.6921 2.1249 15.505524 -0.164791
2010-12-07 07:26:57 51°13.758 2°55.683 12.6662 2.1249 15.505524 -0.164791
2010-12-07 07:27:01 51°13.763 2°55.678 12.6579 2.1249 15.505238 -0.164791
2010-12-07 07:27:07 51°13.769 2°55.671 12.6529 2.1249 15.504668 -0.164791
2010-12-07 07:27:12 51°13.774 2°55.664 12.6525 2.1249 15.504097 -0.199615
2010-12-07 07:27:17 51°13.78 2°55.658 12.6468 2.1249 15.504097 -0.199615
2010-12-07 07:27:21 51°13.785 2°55.653 12.6482 2.124795 15.503545 -0.199615
2010-12-07 07:27:25 51°13.79 2°55.649 12.6454 2.124795 15.503545 -0.199615
2010-12-07 07:27:32 51°13.802 2°55.644 12.6321 2.124795 15.50383 -0.129967
2010-12-07 07:27:37 51°13.809 2°55.639 12.6334 2.1249 15.504097 -0.199615
2010-12-07 07:27:42 51°13.816 2°55.633 12.6454 2.124795 15.503545 -0.164791
2010-12-07 07:27:47 51°13.823 2°55.627 12.658 2.124795 15.50383 -0.164791
2010-12-07 07:27:52 51°13.83 2°55.621 12.6687 2.1249 15.504953 -0.164791
2010-12-07 07:27:56 51°13.836 2°55.616 12.6583 2.1249 15.504953 -0.164791
2010-12-07 07:28:02 51°13.845 2°55.609 12.6597 2.1249 15.504382 -0.199615
2010-12-07 07:28:07 51°13.853 2°55.604 12.6698 2.1249 15.503812 -0.199615
2010-12-07 07:28:12 51°13.861 2°55.598 12.6606 2.124795 15.503259 -0.164791
2010-12-07 07:28:17 51°13.869 2°55.594 12.6381 2.1249 15.503812 -0.164791
2010-12-07 07:28:22 51°13.877 2°55.587 12.6581 2.124795 15.502974 -0.199615
2010-12-07 07:28:27 51°13.885 2°55.581 12.6509 2.124795 15.502974 -0.199615
2010-12-07 07:28:32 51°13.893 2°55.575 12.6646 2.1249 15.503526 -0.164791
2010-12-07 07:28:37 51°13.901 2°55.57 12.6735 2.124795 15.502974 -0.164791
2010-12-07 07:28:42 51°13.909 2°55.565 12.6643 2.1249 15.503812 -0.199615
2010-12-07 07:28:47 51°13.917 2°55.56 12.6576 2.124795 15.503259 -0.164791
2010-12-07 07:28:53 51°13.927 2°55.554 12.6503 2.1249 15.503241 -0.164791
2010-12-07 07:28:58 51°13.936 2°55.548 12.6653 2.1249 15.503241 -0.164791
2010-12-07 07:29:03 51°13.944 2°55.543 12.6788 2.124795 15.502974 -0.199615
2010-12-07 07:29:08 51°13.952 2°55.538 12.6797 2.124795 15.502974 -0.199615
2010-12-07 07:29:14 51°13.962 2°55.531 12.673 2.1249 15.503526 -0.199615
2010-12-07 07:29:20 51°13.971 2°55.524 12.6506 2.1249 15.503241 -0.199615
2010-12-07 07:29:25 51°13.98 2°55.519 12.6483 2.124795 15.502403 -0.199615
2010-12-07 07:29:31 51°13.99 2°55.513 12.6708 2.124795 15.502403 -0.199615
2010-12-07 07:29:36 51°13.998 2°55.508 12.693 2.124795 15.502403 -0.164791
2010-12-07 07:29:41 51°14.006 2°55.502 12.6797 2.124795 15.502689 -0.199615
2010-12-07 07:29:45 51°14.013 2°55.497 12.6718 2.1249 15.503526 -0.199615
2010-12-07 07:29:51 51°14.023 2°55.492 12.6878 2.124795 15.502689 -0.199615
2010-12-07 07:29:56 51°14.031 2°55.486 12.6949 2.12469 15.502422 -0.199615
2010-12-07 07:30:01 51°14.039 2°55.48 12.7003 2.12469 15.502422 -0.199615
2010-12-07 07:30:05 51°14.046 2°55.476 12.7013 2.124795 15.503545 -0.199615
2010-12-07 07:30:11 51°14.055 2°55.469 12.7013 2.124795 15.50383 -0.164791
2010-12-07 07:30:16 51°14.064 2°55.463 12.6712 2.1249 15.504382 -0.164791
2010-12-07 07:30:21 51°14.071 2°55.457 12.6647 2.124795 15.502689 -0.164791
2010-12-07 07:30:26 51°14.08 2°55.451 12.6745 2.124795 15.502403 -0.199615
2010-12-07 07:30:31 51°14.088 2°55.446 12.693 2.124795 15.502403 -0.199615
2010-12-07 07:30:36 51°14.096 2°55.44 12.6921 2.12469 15.501566 -0.199615
2010-12-07 07:30:41 51°14.104 2°55.434 12.6919 2.12469 15.501851 -0.234439
2010-12-07 07:30:46 51°14.112 2°55.428 12.6819 2.12469 15.501851 -0.164791
2010-12-07 07:30:51 51°14.12 2°55.422 12.6909 2.12469 15.502136 -0.199615
2010-12-07 07:30:56 51°14.128 2°55.416 12.715 2.12469 15.502422 -0.199615
2010-12-07 07:31:01 51°14.136 2°55.41 12.699 2.12469 15.502422 -0.199615
2010-12-07 07:31:06 51°14.144 2°55.405 12.7142 2.12469 15.502992 -0.164791
2010-12-07 07:31:11 51°14.152 2°55.399 12.7207 2.12469 15.503563 -0.164791
2010-12-07 07:31:16 51°14.16 2°55.392 12.7057 2.12469 15.503563 -0.199615
2010-12-07 07:31:21 51°14.168 2°55.386 12.6939 2.1249 15.504382 -0.164791
2010-12-07 07:31:25 51°14.174 2°55.381 12.7321 2.12469 15.502422 -0.164791
2010-12-07 07:31:31 51°14.183 2°55.373 12.7028 2.12469 15.502422 -0.164791
2010-12-07 07:31:36 51°14.191 2°55.366 12.6961 2.1249 15.503812 -0.164791
2010-12-07 07:31:41 51°14.198 2°55.359 12.6989 2.124374 15.500764 -0.199615
2010-12-07 07:31:45 51°14.204 2°55.353 12.6974 2.12469 15.503277 -0.164791
2010-12-07 07:31:51 51°14.213 2°55.344 12.6894 2.12469 15.503563 -0.199615
2010-12-07 07:31:56 51°14.221 2°55.336 12.6346 2.12469 15.503277 -0.164791
2010-12-07 07:32:01 51°14.228 2°55.328 12.6526 2.12469 15.503277 -0.164791
2010-12-07 07:32:06 51°14.235 2°55.32 12.6564 2.124479 15.502173 -0.199615
2010-12-07 07:32:11 51°14.243 2°55.312 12.649 2.12511 15.506343 -0.164791
2010-12-07 07:32:16 51°14.25 2°55.305 12.6121 2.124584 15.50244 -0.199615
2010-12-07 07:32:21 51°14.258 2°55.297 12.6528 2.124584 15.501584 -0.199615
2010-12-07 07:32:26 51°14.265 2°55.289 12.6587 2.124479 15.501317 -0.199615
2010-12-07 07:32:31 51°14.273 2°55.281 12.6195 2.124479 15.501317 -0.199615
2010-12-07 07:32:36 51°14.28 2°55.273 12.6385 2.124479 15.501602 -0.164791
2010-12-07 07:32:41 51°14.287 2°55.265 12.5912 2.124795 15.503545 -0.199615
2010-12-07 07:32:46 51°14.295 2°55.257 12.56 2.124374 15.500764 -0.199615
2010-12-07 07:32:51 51°14.302 2°55.249 12.5497 2.124584 15.50244 -0.199615
2010-12-07 07:32:56 51°14.31 2°55.241 12.5937 2.124269 15.501924 -0.199615
2010-12-07 07:33:01 51°14.317 2°55.233 12.5969 2.124269 15.501924 -0.199615
2010-12-07 07:33:05 51°14.323 2°55.226 12.6062 2.12469 15.504133 -0.199615
2010-12-07 07:33:11 51°14.332 2°55.215 12.5802 2.124795 15.504686 -0.199615
2010-12-07 07:33:16 51°14.34 2°55.207 12.5691 2.12469 15.502992 -0.199615
2010-12-07 07:33:21 51°14.348 2°55.199 12.5442 2.1249 15.503812 -0.199615
2010-12-07 07:33:25 51°14.354 2°55.192 12.5621 2.124269 15.500212 -0.129967
2010-12-07 07:33:30 51°14.362 2°55.184 12.5629 2.124269 15.500212 -0.129967
2010-12-07 07:33:35 51°14.37 2°55.176 12.5911 2.124479 15.501887 -0.164791
2010-12-07 07:33:40 51°14.379 2°55.168 12.5908 2.124584 15.502725 -0.199615
2010-12-07 07:33:45 51°14.387 2°55.16 12.584 2.124269 15.501353 -0.199615
2010-12-07 07:33:50 51°14.395 2°55.151 12.4288 2.12469 15.503848 -0.164791
2010-12-07 07:33:55 51°14.403 2°55.143 12.5383 2.123954 15.499695 -0.164791
2010-12-07 07:34:00 51°14.412 2°55.134 12.5139 2.123954 15.499695 -0.164791
2010-12-07 07:34:05 51°14.421 2°55.125 12.4413 2.124795 15.504686 -0.164791
2010-12-07 07:34:10 51°14.43 2°55.116 12.4445 2.124059 15.500533 -0.234439
2010-12-07 07:34:14 51°14.436 2°55.109 12.4987 2.124795 15.503259 -0.164791
2010-12-07 07:34:20 51°14.447 2°55.099 12.5068 2.124164 15.499659 -0.199615
2010-12-07 07:34:25 51°14.456 2°55.089 12.4944 2.1249 15.503526 -0.164791
2010-12-07 07:34:29 51°14.463 2°55.081 12.4741 2.1249 15.503526 -0.164791
2010-12-07 07:34:34 51°14.472 2°55.071 12.3756 2.124795 15.502974 -0.164791
2010-12-07 07:34:41 51°14.485 2°55.058 12.3211 2.124584 15.500728 -0.199615
2010-12-07 07:34:45 51°14.493 2°55.05 12.4254 2.1249 15.500674 -0.199615
2010-12-07 07:34:50 51°14.503 2°55.04 12.4684 2.123743 15.496023 -0.164791
2010-12-07 07:34:55 51°14.512 2°55.029 12.4694 2.124374 15.502191 -0.199615
2010-12-07 07:35:00 51°14.522 2°55.019 12.474 2.124374 15.502191 -0.199615
2010-12-07 07:35:05 51°14.531 2°55.008 12.3543 2.12469 15.504704 -0.164791
2010-12-07 07:35:10 51°14.54 2°54.998 12.2757 2.123743 15.502015 -0.199615
2010-12-07 07:35:14 51°14.548 2°54.989 12.3137 2.125636 15.511674 -0.199615
2010-12-07 07:35:19 51°14.557 2°54.977 12.3328 2.123849 15.498858 -0.199615
2010-12-07 07:35:24 51°14.566 2°54.966 12.3993 2.123954 15.499125 -0.164791
2010-12-07 07:35:29 51°14.575 2°54.954 12.346 2.123954 15.499125 -0.164791
2010-12-07 07:35:34 51°14.584 2°54.942 12.3834 2.124479 15.49989 -0.199615
2010-12-07 07:35:39 51°14.593 2°54.929 12.4032 2.124795 15.501262 -0.199615
2010-12-07 07:35:44 51°14.602 2°54.916 12.3822 2.124269 15.499641 -0.199615
2010-12-07 07:35:49 51°14.611 2°54.903 12.378 2.1249 15.506951 -0.164791
2010-12-07 07:35:53 51°14.618 2°54.892 12.3218 2.124479 15.506168 -0.199615
2010-12-07 07:35:58 51°14.627 2°54.879 12.3437 2.124479 15.506168 -0.199615
2010-12-07 07:36:03 51°14.637 2°54.866 12.339 2.124269 15.505063 -0.199615
2010-12-07 07:36:08 51°14.646 2°54.853 12.4048 2.1249 15.506094 -0.234439
2010-12-07 07:36:13 51°14.655 2°54.84 12.4239 2.12469 15.505275 -0.164791
2010-12-07 07:36:17 51°14.662 2°54.828 12.432 2.123849 15.502567 -0.164791
2010-12-07 07:36:22 51°14.669 2°54.813 12.422 2.125321 15.512301 -0.164791
2010-12-07 07:36:27 51°14.676 2°54.796 12.4285 2.125321 15.512301 -0.164791
2010-12-07 07:36:32 51°14.682 2°54.778 12.4232 2.124479 15.506453 -0.164791
2010-12-07 07:36:37 51°14.687 2°54.759 12.3953 2.123743 15.501444 -0.199615
2010-12-07 07:36:42 51°14.691 2°54.74 12.3637 2.123954 15.49941 -0.164791
2010-12-07 07:36:47 51°14.694 2°54.721 12.3472 2.124374 15.499053 -0.164791
2010-12-07 07:36:52 51°14.696 2°54.7 12.3695 2.123638 15.49376 -0.199615
2010-12-07 07:36:57 51°14.697 2°54.68 12.3664 2.123638 15.49376 -0.199615
2010-12-07 07:37:02 51°14.697 2°54.659 12.4034 2.124374 15.498768 -0.199615
2010-12-07 07:37:07 51°14.696 2°54.638 12.3974 2.124479 15.500176 -0.234439
2010-12-07 07:37:12 51°14.694 2°54.617 12.3914 2.123638 15.496897 -0.164791
2010-12-07 07:37:17 51°14.692 2°54.596 12.3651 2.123954 15.498554 -0.199615
2010-12-07 07:37:22 51°14.687 2°54.575 12.3614 2.123849 15.497717 -0.164791
2010-12-07 07:37:27 51°14.682 2°54.555 12.3651 2.123849 15.497717 -0.164791
2010-12-07 07:37:32 51°14.676 2°54.535 12.3236 2.123849 15.498572 -0.199615
2010-12-07 07:37:37 51°14.67 2°54.515 12.3691 2.124269 15.500497 -0.199615
2010-12-07 07:37:42 51°14.662 2°54.495 12.3627 2.124269 15.500782 -0.164791
2010-12-07 07:37:47 51°14.653 2°54.477 12.3355 2.124059 15.497966 -0.199615
2010-12-07 07:37:52 51°14.644 2°54.458 12.293 2.123954 15.494847 -0.199615
2010-12-07 07:37:57 51°14.634 2°54.44 12.3133 2.123954 15.494847 -0.199615
2010-12-07 07:38:02 51°14.624 2°54.423 12.2522 2.124059 15.492834 -0.199615
2010-12-07 07:38:07 51°14.614 2°54.405 12.2839 2.123638 15.487775 -0.199615
2010-12-07 07:38:12 51°14.603 2°54.387 12.085 2.123954 15.490002 -0.164791
2010-12-07 07:38:17 51°14.592 2°54.368 12.2959 2.123428 15.489234 -0.164791
2010-12-07 07:38:22 51°14.582 2°54.348 12.1438 2.124269 15.501068 -0.164791
2010-12-07 07:38:27 51°14.571 2°54.329 12.2309 2.124269 15.501068 -0.164791
2010-12-07 07:38:32 51°14.562 2°54.308 12.2645 2.123428 15.494936 -0.199615
2010-12-07 07:38:37 51°14.552 2°54.288 12.1716 2.124164 15.504796 -0.199615
2010-12-07 07:38:42 51°14.542 2°54.267 12.2672 2.124059 15.502245 -0.164791
2010-12-07 07:38:47 51°14.533 2°54.246 12.2498 2.124059 15.501389 -0.164791
2010-12-07 07:38:52 51°14.523 2°54.225 12.2624 2.12469 15.502136 -0.199615
2010-12-07 07:38:57 51°14.514 2°54.203 12.2789 2.12469 15.502136 -0.199615
2010-12-07 07:39:02 51°14.505 2°54.181 12.2002 2.123954 15.497699 -0.164791
2010-12-07 07:39:07 51°14.495 2°54.16 12.294 2.124059 15.500248 -0.199615
2010-12-07 07:39:12 51°14.486 2°54.138 12.2491 2.124269 15.501353 -0.164791
2010-12-07 07:39:17 51°14.476 2°54.116 12.2666 2.123954 15.499981 -0.164791
2010-12-07 07:39:22 51°14.467 2°54.093 12.2193 2.124269 15.500497 -0.199615
2010-12-07 07:39:27 51°14.458 2°54.072 12.2572 2.124269 15.500497 -0.199615
2010-12-07 07:39:32 51°14.448 2°54.05 12.2814 2.123743 15.496879 -0.199615
2010-12-07 07:39:37 51°14.439 2°54.028 12.2489 2.123849 15.496861 -0.199615
2010-12-07 07:39:42 51°14.429 2°54.006 12.291 2.124059 15.497966 -0.164791
2010-12-07 07:39:47 51°14.419 2°53.984 12.2148 2.124059 15.496825 -0.199615
2010-12-07 07:39:52 51°14.41 2°53.962 12.2861 2.123638 15.4949 -0.164791
2010-12-07 07:39:57 51°14.4 2°53.94 12.277 2.123638 15.4949 -0.164791
2010-12-07 07:40:01 51°14.392 2°53.923 12.2777 2.123743 15.496879 -0.164791
2010-12-07 07:40:07 51°14.381 2°53.897 12.2482 2.123428 15.496077 -0.199615
2010-12-07 07:40:12 51°14.371 2°53.874 12.2762 2.124059 15.501104 -0.199615
2010-12-07 07:40:17 51°14.361 2°53.853 12.2634 2.124269 15.501924 -0.234439
2010-12-07 07:40:22 51°14.351 2°53.831 12.2668 2.123428 15.496362 -0.199615
2010-12-07 07:40:27 51°14.341 2°53.809 12.2668 2.123428 15.496362 -0.199615
2010-12-07 07:40:32 51°14.332 2°53.787 12.2192 2.123428 15.495221 -0.164791
2010-12-07 07:40:37 51°14.322 2°53.765 12.2569 2.123638 15.495471 -0.199615
2010-12-07 07:40:42 51°14.312 2°53.742 12.27 2.123638 15.494615 -0.199615
2010-12-07 07:40:47 51°14.302 2°53.72 12.2875 2.123323 15.493243 -0.199615
2010-12-07 07:40:52 51°14.293 2°53.698 12.2569 2.123954 15.49884 -0.199615
2010-12-07 07:40:57 51°14.282 2°53.676 12.278 2.123954 15.49884 -0.199615
2010-12-07 07:41:02 51°14.273 2°53.654 12.273 2.123218 15.495257 -0.199615
2010-12-07 07:41:07 51°14.262 2°53.632 12.2532 2.123533 15.496915 -0.164791
2010-12-07 07:41:12 51°14.253 2°53.609 12.2697 2.123113 15.494134 -0.164791
2010-12-07 07:41:17 51°14.243 2°53.587 12.1953 2.123638 15.498323 -0.199615
2010-12-07 07:41:22 51°14.233 2°53.565 12.2663 2.123218 15.494116 -0.199615
2010-12-07 07:41:27 51°14.223 2°53.543 12.2452 2.123218 15.494116 -0.199615
2010-12-07 07:41:32 51°14.213 2°53.52 12.2705 2.123323 15.495524 -0.164791
2010-12-07 07:41:37 51°14.203 2°53.498 12.2325 2.123218 15.494116 -0.199615
2010-12-07 07:41:42 51°14.193 2°53.476 12.2755 2.123428 15.496362 -0.164791
2010-12-07 07:41:47 51°14.183 2°53.453 12.2476 2.123533 15.495774 -0.199615
2010-12-07 07:41:52 51°14.173 2°53.431 12.2788 2.123533 15.495203 -0.199615
2010-12-07 07:41:57 51°14.163 2°53.409 12.2654 2.123533 15.495203 -0.199615
2010-12-07 07:42:02 51°14.153 2°53.386 12.2638 2.123113 15.493278 -0.164791
2010-12-07 07:42:07 51°14.143 2°53.364 12.2687 2.123113 15.493278 -0.164791
2010-12-07 07:42:12 51°14.133 2°53.341 12.2479 2.123113 15.492708 -0.164791
2010-12-07 07:42:17 51°14.123 2°53.319 12.2798 2.123218 15.493831 -0.164791
2010-12-07 07:42:22 51°14.113 2°53.297 12.2237 2.123218 15.494686 -0.199615
2010-12-07 07:42:27 51°14.103 2°53.274 12.2726 2.123218 15.494686 -0.199615
2010-12-07 07:42:32 51°14.093 2°53.252 12.2327 2.122902 15.491032 -0.199615
2010-12-07 07:42:37 51°14.083 2°53.23 12.2665 2.123218 15.494686 -0.164791
2010-12-07 07:42:42 51°14.073 2°53.207 12.2319 2.123113 15.493278 -0.199615
2010-12-07 07:42:47 51°14.063 2°53.185 12.2564 2.123218 15.49326 -0.164791
2010-12-07 07:42:52 51°14.053 2°53.162 12.2383 2.122902 15.489607 -0.129967
2010-12-07 07:42:57 51°14.043 2°53.139 12.2618 2.122902 15.489607 -0.129967
2010-12-07 07:43:02 51°14.034 2°53.117 12.2327 2.123323 15.492672 -0.164791
2010-12-07 07:43:07 51°14.024 2°53.094 12.2707 2.123113 15.491852 -0.164791
2010-12-07 07:43:12 51°14.015 2°53.07 12.2168 2.123007 15.492726 -0.164791
2010-12-07 07:43:17 51°14.005 2°53.047 12.2763 2.123113 15.494134 -0.164791
2010-12-07 07:43:22 51°13.996 2°53.023 12.2625 2.123113 15.49499 -0.164791
2010-12-07 07:43:27 51°13.987 2°53 12.2835 2.123113 15.49499 -0.164791
2010-12-07 07:43:32 51°13.978 2°52.977 12.25 2.123218 15.495257 -0.164791
2010-12-07 07:43:37 51°13.969 2°52.953 12.2413 2.122692 15.493635 -0.164791
2010-12-07 07:43:42 51°13.96 2°52.929 12.2497 2.123008 15.495293 -0.199615
2010-12-07 07:43:47 51°13.951 2°52.905 12.2701 2.123007 15.49244 -0.199615
2010-12-07 07:43:52 51°13.941 2°52.882 12.2394 2.122587 15.489089 -0.164791
2010-12-07 07:43:57 51°13.932 2°52.858 12.2751 2.122587 15.489089 -0.164791
2010-12-07 07:44:02 51°13.923 2°52.835 12.2476 2.123323 15.492672 -0.164791
2010-12-07 07:44:07 51°13.914 2°52.812 12.2768 2.122692 15.488502 -0.164791
2010-12-07 07:44:12 51°13.905 2°52.788 12.2766 2.123113 15.490997 -0.199615
2010-12-07 07:44:17 51°13.896 2°52.764 12.2789 2.122797 15.48991 -0.199615
2010-12-07 07:44:22 51°13.886 2°52.741 12.2908 2.122902 15.491603 -0.164791
2010-12-07 07:44:27 51°13.877 2°52.717 12.2786 2.122902 15.491603 -0.164791
2010-12-07 07:44:32 51°13.868 2°52.693 12.2982 2.122797 15.492476 -0.129967
2010-12-07 07:44:37 51°13.859 2°52.67 12.2614 2.122902 15.492743 -0.164791
2010-12-07 07:44:42 51°13.85 2°52.646 12.2875 2.122692 15.491923 -0.199615
2010-12-07 07:44:47 51°13.841 2°52.622 12.2383 2.122587 15.488804 -0.199615
2010-12-07 07:44:52 51°13.832 2°52.599 12.2892 2.122482 15.487966 -0.164791
2010-12-07 07:44:57 51°13.823 2°52.575 12.2677 2.122482 15.487966 -0.164791
2010-12-07 07:45:02 51°13.813 2°52.552 12.2837 2.122692 15.489357 -0.199615
2010-12-07 07:45:07 51°13.804 2°52.528 12.2943 2.122587 15.489374 -0.164791
2010-12-07 07:45:12 51°13.795 2°52.504 12.2745 2.122692 15.490783 -0.164791
2010-12-07 07:45:17 51°13.785 2°52.481 12.2583 2.122797 15.490765 -0.164791
2010-12-07 07:45:22 51°13.777 2°52.456 12.2999 2.122482 15.489107 -0.164791
2010-12-07 07:45:27 51°13.768 2°52.432 12.245 2.122482 15.489107 -0.164791
2010-12-07 07:45:32 51°13.76 2°52.408 12.3119 2.122482 15.489107 -0.199615
2010-12-07 07:45:37 51°13.752 2°52.383 12.2568 2.122482 15.489962 -0.164791
2010-12-07 07:45:42 51°13.743 2°52.359 12.2897 2.122587 15.4908 -0.199615
2010-12-07 07:45:47 51°13.736 2°52.334 12.2477 2.122377 15.490265 -0.164791
2010-12-07 07:45:52 51°13.727 2°52.31 12.2817 2.122797 15.493046 -0.199615
2010-12-07 07:45:57 51°13.72 2°52.285 12.2911 2.122797 15.493046 -0.199615
2010-12-07 07:46:02 51°13.711 2°52.26 12.292 2.122377 15.490265 -0.164791
2010-12-07 07:46:07 51°13.704 2°52.235 12.3034 2.122692 15.491638 -0.164791
2010-12-07 07:46:12 51°13.696 2°52.21 12.2714 2.122587 15.491371 -0.164791
2010-12-07 07:46:17 51°13.688 2°52.185 12.2997 2.122482 15.489962 -0.199615
2010-12-07 07:46:22 51°13.68 2°52.161 12.2573 2.122797 15.492191 -0.164791
2010-12-07 07:46:27 51°13.672 2°52.136 12.2906 2.122797 15.492191 -0.164791
2010-12-07 07:46:32 51°13.664 2°52.112 12.2487 2.122377 15.49055 -0.164791
2010-12-07 07:46:37 51°13.656 2°52.087 12.3028 2.122587 15.492226 -0.164791
2010-12-07 07:46:42 51°13.648 2°52.062 12.2292 2.122692 15.491638 -0.164791
2010-12-07 07:46:47 51°13.64 2°52.038 12.2952 2.122482 15.490818 -0.164791
2010-12-07 07:46:52 51°13.632 2°52.013 12.2323 2.122587 15.491085 -0.199615
2010-12-07 07:46:57 51°13.623 2°51.989 12.2878 2.122587 15.491085 -0.199615
2010-12-07 07:47:02 51°13.616 2°51.965 12.2501 2.122797 15.492476 -0.199615
2010-12-07 07:47:07 51°13.607 2°51.94 12.2817 2.122692 15.493349 -0.164791
2010-12-07 07:47:12 51°13.599 2°51.915 12.2391 2.122692 15.493349 -0.164791
2010-12-07 07:47:17 51°13.591 2°51.891 12.2849 2.122587 15.492797 -0.199615
2010-12-07 07:47:22 51°13.583 2°51.867 12.2723 2.122377 15.491406 -0.164791
2010-12-07 07:47:27 51°13.575 2°51.844 12.3019 2.122377 15.491406 -0.164791
2010-12-07 07:47:32 51°13.568 2°51.822 12.2914 2.122482 15.491959 -0.164791
2010-12-07 07:47:37 51°13.56 2°51.8 12.2947 2.122377 15.491976 -0.199615
2010-12-07 07:47:42 51°13.554 2°51.779 12.2959 2.122482 15.4931 -0.164791
2010-12-07 07:47:47 51°13.547 2°51.759 12.3077 2.122272 15.491424 -0.164791
2010-12-07 07:47:52 51°13.541 2°51.739 12.2968 2.122377 15.493688 -0.164791
2010-12-07 07:47:57 51°13.535 2°51.721 12.3136 2.122377 15.493688 -0.164791
2010-12-07 07:48:02 51°13.529 2°51.702 12.3043 2.122272 15.494277 -0.199615
2010-12-07 07:48:07 51°13.523 2°51.685 12.3253 2.122692 15.497915 -0.164791
2010-12-07 07:48:12 51°13.518 2°51.669 12.3133 2.122377 15.496257 -0.164791
2010-12-07 07:48:17 51°13.512 2°51.653 12.326 2.122797 15.498468 -0.164791
2010-12-07 07:48:22 51°13.507 2°51.637 12.3266 2.122587 15.497077 -0.164791
2010-12-07 07:48:27 51°13.502 2°51.623 12.31 2.122587 15.497077 -0.164791
2010-12-07 07:48:32 51°13.497 2°51.609 12.3363 2.122167 15.494295 -0.164791
2010-12-07 07:48:37 51°13.492 2°51.596 12.3355 2.122692 15.497344 -0.164791
2010-12-07 07:48:42 51°13.487 2°51.582 12.3338 2.122377 15.495686 -0.164791
2010-12-07 07:48:47 51°13.482 2°51.57 12.3296 2.122587 15.496221 -0.164791
2010-12-07 07:48:52 51°13.477 2°51.557 12.3387 2.122377 15.4954 -0.199615
2010-12-07 07:48:57 51°13.472 2°51.545 12.32 2.122377 15.4954 -0.199615
2010-12-07 07:49:01 51°13.467 2°51.535 12.3313 2.122272 15.494848 -0.164791
2010-12-07 07:49:07 51°13.462 2°51.521 12.3092 2.122167 15.493439 -0.164791
2010-12-07 07:49:12 51°13.457 2°51.509 12.3262 2.122061 15.492315 -0.164791
2010-12-07 07:49:17 51°13.453 2°51.497 12.312 2.122061 15.493171 -0.164791
2010-12-07 07:49:22 51°13.449 2°51.486 12.3437 2.121851 15.49178 -0.164791
2010-12-07 07:49:27 51°13.445 2°51.475 12.3101 2.121851 15.49178 -0.164791
2010-12-07 07:49:32 51°13.441 2°51.465 12.3362 2.122167 15.493153 -0.164791
2010-12-07 07:49:37 51°13.438 2°51.455 12.3411 2.122061 15.492315 -0.164791
2010-12-07 07:49:42 51°13.435 2°51.446 12.3495 2.122061 15.49203 -0.164791
2010-12-07 07:49:47 51°13.431 2°51.438 12.3434 2.122272 15.493706 -0.129967
2010-12-07 07:49:53 51°13.428 2°51.43 12.3535 2.121851 15.492351 -0.164791
2010-12-07 07:49:57 51°13.426 2°51.425 12.3517 2.121851 15.492351 -0.164791
2010-12-07 07:50:01 51°13.425 2°51.42 12.3511 2.121956 15.494331 -0.199615
2010-12-07 07:50:07 51°13.423 2°51.415 12.3336 2.121851 15.494063 -0.199615
2010-12-07 07:50:12 51°13.421 2°51.411 12.3528 2.122167 15.494866 -0.164791
2010-12-07 07:50:17 51°13.42 2°51.406 12.3416 2.121851 15.492636 -0.199615
2010-12-07 07:50:22 51°13.418 2°51.402 12.3603 2.121851 15.492351 -0.129967
2010-12-07 07:50:27 51°13.417 2°51.398 12.3427 2.121851 15.492351 -0.129967
2010-12-07 07:50:32 51°13.415 2°51.394 12.3594 2.121851 15.492636 -0.164791
2010-12-07 07:50:37 51°13.413 2°51.39 12.3486 2.121851 15.491495 -0.164791
2010-12-07 07:50:42 51°13.412 2°51.386 12.3665 2.121956 15.491477 -0.164791
2010-12-07 07:50:47 51°13.41 2°51.381 12.1374 2.121746 15.490657 -0.164791
2010-12-07 07:50:52 51°13.409 2°51.377 12.2059 2.123743 15.498876 -0.164791
2010-12-07 07:50:57 51°13.407 2°51.373 12.1935 2.123743 15.498876 -0.164791
2010-12-07 07:51:01 51°13.406 2°51.37 12.2032 2.121746 15.481247 -0.164791
2010-12-07 07:51:07 51°13.404 2°51.365 12.2144 2.121325 15.486734 -0.199615
2010-12-07 07:51:12 51°13.402 2°51.362 12.2169 2.121746 15.489516 -0.164791
2010-12-07 07:51:17 51°13.401 2°51.357 12.2187 2.121431 15.486431 -0.164791
2010-12-07 07:51:21 51°13.399 2°51.354 12.2258 2.121746 15.48866 -0.199615
2010-12-07 07:51:27 51°13.398 2°51.349 12.2268 2.121746 15.48866 -0.199615
2010-12-07 07:51:32 51°13.396 2°51.346 12.2302 2.121746 15.488945 -0.199615
2010-12-07 07:51:37 51°13.395 2°51.341 12.2334 2.121325 15.48816 -0.164791
2010-12-07 07:51:42 51°13.393 2°51.337 12.243 2.122061 15.494313 -0.199615
2010-12-07 07:51:47 51°13.392 2°51.333 12.2442 2.121641 15.491245 -0.164791
2010-12-07 07:51:52 51°13.39 2°51.329 12.2461 2.121536 15.490122 -0.164791
2010-12-07 07:51:57 51°13.388 2°51.326 12.2485 2.121536 15.490122 -0.164791
2010-12-07 07:52:02 51°13.387 2°51.322 12.2537 2.121536 15.488695 -0.164791
2010-12-07 07:52:07 51°13.385 2°51.318 12.2566 2.121746 15.489801 -0.164791
2010-12-07 07:52:12 51°13.384 2°51.314 12.2554 2.121641 15.488107 -0.199615
2010-12-07 07:52:17 51°13.382 2°51.31 12.2558 2.121325 15.486448 -0.164791
2010-12-07 07:52:22 51°13.38 2°51.306 12.2615 2.121641 15.487251 -0.164791
2010-12-07 07:52:27 51°13.379 2°51.302 12.2651 2.121641 15.487251 -0.164791
2010-12-07 07:52:32 51°13.377 2°51.298 12.2615 2.121325 15.485593 -0.129967
2010-12-07 07:52:37 51°13.376 2°51.294 12.2675 2.121431 15.485575 -0.164791
2010-12-07 07:52:42 51°13.374 2°51.291 12.2682 2.121536 15.485843 -0.129967
2010-12-07 07:52:47 51°13.373 2°51.287 12.2727 2.12122 15.48561 -0.164791
2010-12-07 07:52:52 51°13.371 2°51.283 12.2714 2.121431 15.487286 -0.164791
2010-12-07 07:52:57 51°13.37 2°51.279 12.2789 2.121431 15.487286 -0.164791
2010-12-07 07:53:01 51°13.369 2°51.276 12.2785 2.121325 15.487589 -0.199615
2010-12-07 07:53:07 51°13.367 2°51.272 12.2811 2.121325 15.489301 -0.164791
2010-12-07 07:53:12 51°13.365 2°51.268 12.2813 2.121536 15.491548 -0.164791
2010-12-07 07:53:17 51°13.363 2°51.264 12.2854 2.121536 15.491834 -0.164791
2010-12-07 07:53:22 51°13.362 2°51.26 12.2821 2.121536 15.492119 -0.164791
2010-12-07 07:53:27 51°13.361 2°51.257 12.2867 2.121536 15.492119 -0.164791
2010-12-07 07:53:32 51°13.359 2°51.253 12.2905 2.121431 15.49071 -0.129967
2010-12-07 07:53:37 51°13.357 2°51.249 12.2911 2.121431 15.489569 -0.129967
2010-12-07 07:53:42 51°13.356 2°51.246 12.294 2.121325 15.488445 -0.164791
2010-12-07 07:53:47 51°13.354 2°51.242 12.2943 2.121641 15.489819 -0.164791
2010-12-07 07:53:52 51°13.353 2°51.238 12.2918 2.12122 15.487607 -0.164791
2010-12-07 07:53:57 51°13.351 2°51.234 12.2995 2.12122 15.487607 -0.164791
2010-12-07 07:54:01 51°13.35 2°51.231 12.2938 2.121325 15.488445 -0.164791
2010-12-07 07:54:07 51°13.349 2°51.226 12.3002 2.12122 15.487607 -0.164791
2010-12-07 07:54:13 51°13.347 2°51.223 12.305 2.121431 15.489283 -0.164791
2010-12-07 07:54:17 51°13.345 2°51.22 12.3047 2.121325 15.488445 -0.199615
2010-12-07 07:54:21 51°13.344 2°51.217 12.3023 2.12122 15.487892 -0.164791
2010-12-07 07:54:27 51°13.343 2°51.212 12.3047 2.12122 15.487892 -0.164791
2010-12-07 07:54:32 51°13.341 2°51.208 12.3098 2.121325 15.488445 -0.164791
2010-12-07 07:54:37 51°13.34 2°51.204 12.3122 2.12122 15.488178 -0.164791
2010-12-07 07:54:42 51°13.338 2°51.201 12.3108 2.12122 15.488178 -0.164791
2010-12-07 07:54:47 51°13.337 2°51.197 12.3229 2.12122 15.488463 -0.164791
2010-12-07 07:54:52 51°13.336 2°51.193 12.3089 2.12122 15.488748 -0.129967
2010-12-07 07:54:57 51°13.334 2°51.19 12.3244 2.12122 15.488748 -0.129967
2010-12-07 07:55:02 51°13.333 2°51.186 12.3108 2.12101 15.488213 -0.164791
2010-12-07 07:55:07 51°13.331 2°51.183 12.3282 2.121325 15.489586 -0.164791
2010-12-07 07:55:12 51°13.329 2°51.179 12.3194 2.12122 15.487892 -0.164791
2010-12-07 07:55:17 51°13.328 2°51.175 12.3283 2.12101 15.486501 -0.129967
2010-12-07 07:55:22 51°13.327 2°51.171 12.3299 2.121325 15.48816 -0.164791
2010-12-07 07:55:27 51°13.325 2°51.168 12.3343 2.121325 15.48816 -0.164791
2010-12-07 07:55:32 51°13.324 2°51.164 12.3318 2.12101 15.485645 -0.164791
2010-12-07 07:55:37 51°13.322 2°51.161 12.3182 2.12101 15.486216 -0.164791
2010-12-07 07:55:42 51°13.32 2°51.157 12.33 2.12101 15.486786 -0.164791
2010-12-07 07:55:47 51°13.319 2°51.153 12.3358 2.12101 15.486501 -0.129967
2010-12-07 07:55:52 51°13.318 2°51.15 12.3401 2.1208 15.48511 -0.164791
2010-12-07 07:55:57 51°13.316 2°51.146 12.3288 2.1208 15.48511 -0.164791
2010-12-07 07:56:02 51°13.314 2°51.142 12.3513 2.121325 15.488445 -0.164791
2010-12-07 07:56:07 51°13.313 2°51.138 12.3517 2.12101 15.486501 -0.164791
2010-12-07 07:56:12 51°13.311 2°51.134 12.3499 2.120905 15.487089 -0.199615
2010-12-07 07:56:17 51°13.309 2°51.13 12.3548 2.12101 15.488498 -0.164791
2010-12-07 07:56:22 51°13.306 2°51.125 12.3555 2.120905 15.488231 -0.164791
2010-12-07 07:56:27 51°13.304 2°51.121 12.3539 2.120905 15.488231 -0.164791
2010-12-07 07:56:32 51°13.3 2°51.117 12.3602 2.12122 15.48989 -0.199615
2010-12-07 07:56:37 51°13.297 2°51.112 12.3548 2.121115 15.489622 -0.164791
2010-12-07 07:56:41 51°13.294 2°51.109 12.3698 2.120905 15.488231 -0.164791
2010-12-07 07:56:47 51°13.29 2°51.104 12.3713 2.120905 15.488801 -0.164791
2010-12-07 07:56:52 51°13.285 2°51.101 12.3767 2.120695 15.487125 -0.129967
2010-12-07 07:56:57 51°13.281 2°51.097 12.3732 2.120695 15.487125 -0.129967
2010-12-07 07:57:02 51°13.276 2°51.095 12.3765 2.1208 15.486822 -0.164791
2010-12-07 07:57:07 51°13.272 2°51.092 12.3719 2.121115 15.487625 -0.164791
2010-12-07 07:57:12 51°13.266 2°51.091 12.3658 2.120695 15.483416 -0.129967
2010-12-07 07:57:17 51°13.26 2°51.089 12.3524 2.1208 15.483684 -0.164791
2010-12-07 07:57:22 51°13.254 2°51.088 12.3652 2.120695 15.481705 -0.164791
2010-12-07 07:57:27 51°13.248 2°51.086 12.3534 2.120695 15.481705 -0.164791
2010-12-07 07:57:32 51°13.242 2°51.085 12.3528 2.120589 15.480297 -0.164791
2010-12-07 07:57:37 51°13.235 2°51.084 12.3694 2.1208 15.480832 -0.129967
2010-12-07 07:57:41 51°13.229 2°51.084 12.3775 2.1208 15.480832 -0.199615
2010-12-07 07:57:47 51°13.221 2°51.083 12.3758 2.12101 15.483364 -0.129967
2010-12-07 07:57:52 51°13.214 2°51.083 12.3778 2.120695 15.48199 -0.164791
2010-12-07 07:57:57 51°13.206 2°51.083 12.3766 2.120695 15.48199 -0.164791
2010-12-07 07:58:01 51°13.2 2°51.084 12.3755 2.120695 15.481705 -0.164791
2010-12-07 07:58:07 51°13.19 2°51.084 12.3784 2.120589 15.480582 -0.164791
2010-12-07 07:58:12 51°13.182 2°51.084 12.3901 2.120695 15.480564 -0.129967
2010-12-07 07:58:17 51°13.175 2°51.084 12.3797 2.120695 15.479994 -0.199615
2010-12-07 07:58:22 51°13.167 2°51.085 12.3822 2.120905 15.48167 -0.164791
2010-12-07 07:58:27 51°13.159 2°51.086 12.3712 2.120905 15.48167 -0.164791
2010-12-07 07:58:32 51°13.152 2°51.086 12.3842 2.120695 15.481135 -0.164791
2010-12-07 07:58:37 51°13.144 2°51.086 12.3712 2.120484 15.478603 -0.129967
2010-12-07 07:58:42 51°13.137 2°51.087 12.3756 2.120484 15.478888 -0.164791
2010-12-07 07:58:47 51°13.129 2°51.087 12.3861 2.120379 15.477765 -0.164791
2010-12-07 07:58:52 51°13.122 2°51.086 12.394 2.120589 15.479726 -0.164791
2010-12-07 07:58:57 51°13.115 2°51.085 12.3818 2.120589 15.479726 -0.164791
2010-12-07 07:59:02 51°13.107 2°51.084 12.385 2.120589 15.479726 -0.129967
2010-12-07 07:59:07 51°13.1 2°51.083 12.3976 2.120695 15.480279 -0.164791
2010-12-07 07:59:12 51°13.093 2°51.081 12.3896 2.120589 15.480011 -0.164791
2010-12-07 07:59:17 51°13.086 2°51.079 12.3983 2.12059 15.481437 -0.164791
2010-12-07 07:59:22 51°13.08 2°51.076 12.3943 2.120379 15.480046 -0.129967
2010-12-07 07:59:27 51°13.073 2°51.074 12.4138 2.120379 15.480046 -0.129967
2010-12-07 07:59:32 51°13.066 2°51.07 12.3876 2.120484 15.481454 -0.164791
2010-12-07 07:59:37 51°13.06 2°51.068 12.4226 2.120484 15.482025 -0.129967
2010-12-07 07:59:42 51°13.053 2°51.063 12.4118 2.12059 15.481437 -0.129967
2010-12-07 07:59:47 51°13.047 2°51.06 12.4125 2.120695 15.483416 -0.199615
2010-12-07 07:59:52 51°13.041 2°51.056 12.4165 2.1208 15.484254 -0.199615
2010-12-07 07:59:57 51°13.035 2°51.053 12.4223 2.1208 15.484254 -0.199615
2010-12-07 08:00:02 51°13.029 2°51.048 12.4148 2.120379 15.482613 -0.164791
2010-12-07 08:00:07 51°13.023 2°51.044 12.4301 2.120484 15.483736 -0.129967
2010-12-07 08:00:12 51°13.017 2°51.04 12.4308 2.120379 15.482898 -0.164791
2010-12-07 08:00:17 51°13.011 2°51.036 12.427 2.1208 15.48568 -0.164791
2010-12-07 08:00:22 51°13.006 2°51.033 12.4283 2.12059 15.484004 -0.164791
2010-12-07 08:00:27 51°13.001 2°51.029 12.4343 2.12059 15.484004 -0.164791
2010-12-07 08:00:32 51°12.995 2°51.025 12.4402 2.12059 15.483719 -0.164791
2010-12-07 08:00:37 51°12.99 2°51.02 12.4191 2.120274 15.48263 -0.164791
2010-12-07 08:00:42 51°12.985 2°51.016 12.4475 2.120484 15.483736 -0.129967
2010-12-07 08:00:47 51°12.979 2°51.012 12.4477 2.12059 15.483719 -0.164791
2010-12-07 08:00:52 51°12.974 2°51.008 12.4383 2.120484 15.483451 -0.164791
2010-12-07 08:00:57 51°12.969 2°51.003 12.4495 2.120484 15.483451 -0.164791
2010-12-07 08:01:02 51°12.964 2°50.999 12.4453 2.12059 15.484289 -0.164791
2010-12-07 08:01:07 51°12.959 2°50.995 12.4175 2.120484 15.484307 -0.129967
2010-12-07 08:01:12 51°12.954 2°50.99 12.4623 2.120379 15.484609 -0.164791
2010-12-07 08:01:17 51°12.949 2°50.985 12.4263 2.120379 15.482327 -0.129967
2010-12-07 08:01:22 51°12.944 2°50.981 12.4534 2.120484 15.484592 -0.164791
2010-12-07 08:01:27 51°12.94 2°50.976 12.4483 2.120484 15.484592 -0.164791
2010-12-07 08:01:32 51°12.935 2°50.971 12.467 2.120379 15.484039 -0.164791
2010-12-07 08:01:37 51°12.93 2°50.966 12.447 2.120379 15.484895 -0.164791
2010-12-07 08:01:42 51°12.926 2°50.961 12.4556 2.120169 15.484074 -0.164791
2010-12-07 08:01:47 51°12.921 2°50.955 12.4681 2.120379 15.48518 -0.164791
2010-12-07 08:01:52 51°12.917 2°50.949 12.4698 2.120379 15.48518 -0.129967
2010-12-07 08:01:57 51°12.913 2°50.944 12.4666 2.120379 15.48518 -0.129967
2010-12-07 08:02:02 51°12.909 2°50.938 12.4807 2.120379 15.486892 -0.164791
2010-12-07 08:02:07 51°12.904 2°50.932 12.4656 2.120169 15.486642 -0.164791
2010-12-07 08:02:12 51°12.9 2°50.927 12.4698 2.120379 15.48889 -0.129967
2010-12-07 08:02:17 51°12.896 2°50.921 12.4797 2.120379 15.489176 -0.129967
2010-12-07 08:02:22 51°12.892 2°50.915 12.4592 2.120274 15.488052 -0.129967
2010-12-07 08:02:27 51°12.888 2°50.91 12.4925 2.120274 15.488052 -0.129967
2010-12-07 08:02:32 51°12.884 2°50.903 12.4501 2.120064 15.487231 -0.164791
2010-12-07 08:02:37 51°12.88 2°50.898 12.4836 2.120274 15.487195 -0.164791
2010-12-07 08:02:42 51°12.876 2°50.891 12.4789 2.120274 15.486054 -0.164791
2010-12-07 08:02:47 51°12.872 2°50.886 12.4847 2.120169 15.485786 -0.164791
2010-12-07 08:02:52 51°12.867 2°50.88 12.4857 2.120064 15.485804 -0.164791
2010-12-07 08:02:57 51°12.863 2°50.875 12.4753 2.120064 15.485804 -0.164791
2010-12-07 08:03:01 51°12.859 2°50.87 12.4969 2.120064 15.485233 -0.164791
2010-12-07 08:03:07 51°12.854 2°50.863 12.4893 2.120274 15.485198 -0.129967
2010-12-07 08:03:13 51°12.849 2°50.855 12.4917 2.119959 15.484965 -0.129967
2010-12-07 08:03:17 51°12.845 2°50.851 12.481 2.120064 15.484948 -0.164791
2010-12-07 08:03:21 51°12.842 2°50.846 12.5034 2.119749 15.483003 -0.164791
2010-12-07 08:03:27 51°12.836 2°50.839 12.4855 2.119749 15.483003 -0.164791
2010-12-07 08:03:32 51°12.833 2°50.833 12.506 2.120274 15.486339 -0.164791
2010-12-07 08:03:37 51°12.828 2°50.826 12.4916 2.120064 15.484377 -0.164791
2010-12-07 08:03:42 51°12.824 2°50.819 12.5097 2.119959 15.484394 -0.164791
2010-12-07 08:03:47 51°12.821 2°50.812 12.4864 2.120064 15.484377 -0.164791
2010-12-07 08:03:52 51°12.817 2°50.805 12.5174 2.119854 15.484127 -0.164791
2010-12-07 08:03:57 51°12.813 2°50.798 12.5148 2.119854 15.484127 -0.164791
2010-12-07 08:04:01 51°12.81 2°50.793 12.5087 2.119854 15.483841 -0.129967
2010-12-07 08:04:07 51°12.805 2°50.784 12.5248 2.119643 15.48302 -0.164791
2010-12-07 08:04:12 51°12.802 2°50.776 12.5077 2.119959 15.484965 -0.164791
2010-12-07 08:04:17 51°12.798 2°50.769 12.5264 2.119749 15.484144 -0.129967
2010-12-07 08:04:21 51°12.796 2°50.763 12.5237 2.119749 15.483859 -0.199615
2010-12-07 08:04:27 51°12.792 2°50.754 12.5252 2.119749 15.483859 -0.199615
2010-12-07 08:04:32 51°12.789 2°50.746 12.5234 2.119643 15.483591 -0.164791
2010-12-07 08:04:37 51°12.785 2°50.738 12.5301 2.119749 15.484715 -0.129967
2010-12-07 08:04:42 51°12.782 2°50.73 12.5267 2.119749 15.48443 -0.164791
2010-12-07 08:04:47 51°12.779 2°50.723 12.5248 2.119643 15.483876 -0.164791
2010-12-07 08:04:52 51°12.775 2°50.715 12.5343 2.119538 15.483038 -0.129967
2010-12-07 08:04:57 51°12.772 2°50.706 12.5316 2.119538 15.483038 -0.129967
2010-12-07 08:05:02 51°12.769 2°50.698 12.5431 2.119749 15.484715 -0.129967
2010-12-07 08:05:07 51°12.766 2°50.69 12.5371 2.119538 15.483038 -0.164791
2010-12-07 08:05:12 51°12.763 2°50.681 12.548 2.119643 15.483591 -0.164791
2010-12-07 08:05:17 51°12.76 2°50.672 12.5362 2.119538 15.483323 -0.129967
2010-12-07 08:05:22 51°12.757 2°50.664 12.5509 2.119538 15.483038 -0.164791
2010-12-07 08:05:27 51°12.754 2°50.656 12.5531 2.119538 15.483038 -0.164791
2010-12-07 08:05:32 51°12.751 2°50.647 12.5464 2.119538 15.483323 -0.129967
2010-12-07 08:05:37 51°12.747 2°50.639 12.5493 2.119433 15.483341 -0.164791
2010-12-07 08:05:42 51°12.744 2°50.631 12.5478 2.119538 15.483038 -0.164791
2010-12-07 08:05:47 51°12.741 2°50.622 12.5649 2.119328 15.482217 -0.164791
2010-12-07 08:05:52 51°12.738 2°50.614 12.5424 2.119643 15.483591 -0.164791
2010-12-07 08:05:57 51°12.734 2°50.606 12.5669 2.119643 15.483591 -0.164791
2010-12-07 08:06:02 51°12.731 2°50.598 12.5614 2.119223 15.481378 -0.164791
2010-12-07 08:06:07 51°12.728 2°50.589 12.5728 2.119433 15.483055 -0.164791
2010-12-07 08:06:12 51°12.725 2°50.58 12.541 2.119328 15.482502 -0.164791
2010-12-07 08:06:17 51°12.721 2°50.572 12.5755 2.119223 15.482234 -0.164791
2010-12-07 08:06:22 51°12.718 2°50.564 12.5685 2.119328 15.482788 -0.129967
2010-12-07 08:06:27 51°12.715 2°50.555 12.5691 2.119328 15.482788 -0.129967
2010-12-07 08:06:32 51°12.711 2°50.547 12.5776 2.119013 15.481128 -0.164791
2010-12-07 08:06:37 51°12.708 2°50.539 12.5621 2.119328 15.483358 -0.164791
2010-12-07 08:06:42 51°12.704 2°50.531 12.5825 2.119118 15.481966 -0.129967
2010-12-07 08:06:47 51°12.701 2°50.523 12.5825 2.119223 15.481949 -0.129967
2010-12-07 08:06:52 51°12.697 2°50.514 12.5831 2.119013 15.481128 -0.199615
2010-12-07 08:06:57 51°12.693 2°50.506 12.5916 2.119013 15.481128 -0.199615
2010-12-07 08:07:02 51°12.69 2°50.498 12.5925 2.119118 15.482252 -0.164791
2010-12-07 08:07:07 51°12.686 2°50.49 12.5734 2.119118 15.482252 -0.129967
2010-12-07 08:07:12 51°12.683 2°50.482 12.5753 2.118908 15.481145 -0.164791
2010-12-07 08:07:17 51°12.679 2°50.474 12.5953 2.119118 15.482252 -0.129967
2010-12-07 08:07:22 51°12.676 2°50.466 12.597 2.119223 15.482234 -0.164791
2010-12-07 08:07:27 51°12.672 2°50.457 12.5766 2.119223 15.482234 -0.164791
2010-12-07 08:07:32 51°12.669 2°50.449 12.6069 2.119013 15.481413 -0.129967
2010-12-07 08:07:37 51°12.665 2°50.441 12.5701 2.119013 15.48227 -0.164791
2010-12-07 08:07:41 51°12.662 2°50.435 12.6028 2.119013 15.481984 -0.164791
2010-12-07 08:07:47 51°12.658 2°50.424 12.5972 2.119223 15.48252 -0.164791
2010-12-07 08:07:52 51°12.654 2°50.417 12.5971 2.118802 15.480592 -0.164791
2010-12-07 08:07:57 51°12.651 2°50.409 12.5828 2.118802 15.480592 -0.164791
2010-12-07 08:08:02 51°12.647 2°50.401 12.6122 2.119223 15.482805 -0.164791
2010-12-07 08:08:07 51°12.644 2°50.392 12.616 2.118908 15.481431 -0.199615
2010-12-07 08:08:12 51°12.64 2°50.384 12.6066 2.119013 15.481699 -0.129967
2010-12-07 08:08:17 51°12.637 2°50.376 12.6092 2.118802 15.480877 -0.164791
2010-12-07 08:08:22 51°12.633 2°50.368 12.6141 2.119013 15.481984 -0.164791
2010-12-07 08:08:27 51°12.63 2°50.36 12.6205 2.119013 15.481984 -0.164791
2010-12-07 08:08:32 51°12.626 2°50.352 12.62 2.118802 15.480592 -0.164791
2010-12-07 08:08:37 51°12.622 2°50.344 12.6219 2.118697 15.480609 -0.164791
2010-12-07 08:08:42 51°12.618 2°50.336 12.6224 2.118802 15.482019 -0.129967
2010-12-07 08:08:47 51°12.614 2°50.328 12.6177 2.118908 15.482573 -0.164791
2010-12-07 08:08:52 51°12.611 2°50.32 12.6284 2.119013 15.483126 -0.164791
2010-12-07 08:08:57 51°12.607 2°50.312 12.6271 2.119013 15.483126 -0.164791
2010-12-07 08:09:02 51°12.603 2°50.304 12.6349 2.118802 15.48259 -0.129967
2010-12-07 08:09:07 51°12.6 2°50.296 12.61 2.118697 15.481751 -0.164791
2010-12-07 08:09:12 51°12.596 2°50.288 12.642 2.118697 15.482037 -0.129967
2010-12-07 08:09:17 51°12.593 2°50.279 12.6129 2.118697 15.48118 -0.129967
2010-12-07 08:09:22 51°12.589 2°50.272 12.6466 2.118592 15.481483 -0.164791
2010-12-07 08:09:27 51°12.585 2°50.264 12.6227 2.118592 15.481483 -0.164791
2010-12-07 08:09:32 51°12.581 2°50.256 12.6446 2.118592 15.481198 -0.164791
2010-12-07 08:09:37 51°12.578 2°50.248 12.6193 2.118592 15.480342 -0.164791
2010-12-07 08:09:41 51°12.575 2°50.242 12.6488 2.118592 15.480056 -0.164791
2010-12-07 08:09:47 51°12.571 2°50.232 12.6277 2.118697 15.479753 -0.164791
2010-12-07 08:09:52 51°12.567 2°50.224 12.6479 2.118487 15.478646 -0.129967
2010-12-07 08:09:57 51°12.563 2°50.216 12.6435 2.118487 15.478646 -0.129967
2010-12-07 08:10:02 51°12.559 2°50.208 12.6419 2.118382 15.478378 -0.164791
2010-12-07 08:10:07 51°12.556 2°50.199 12.645 2.118382 15.47952 -0.129967
2010-12-07 08:10:12 51°12.552 2°50.192 12.6551 2.118487 15.479788 -0.129967
2010-12-07 08:10:17 51°12.549 2°50.183 12.6524 2.118487 15.480074 -0.164791
2010-12-07 08:10:22 51°12.545 2°50.176 12.6479 2.118592 15.481198 -0.164791
2010-12-07 08:10:27 51°12.541 2°50.167 12.6505 2.118592 15.481198 -0.164791
2010-12-07 08:10:32 51°12.537 2°50.16 12.6623 2.118277 15.479823 -0.129967
2010-12-07 08:10:37 51°12.534 2°50.151 12.652 2.118382 15.480377 -0.164791
2010-12-07 08:10:41 51°12.531 2°50.145 12.6667 2.118487 15.480645 -0.129967
2010-12-07 08:10:47 51°12.527 2°50.136 12.6659 2.118172 15.478413 -0.164791
2010-12-07 08:10:52 51°12.523 2°50.128 12.6643 2.118382 15.480091 -0.129967
2010-12-07 08:10:57 51°12.519 2°50.12 12.6721 2.118382 15.480091 -0.129967
2010-12-07 08:11:01 51°12.516 2°50.113 12.6729 2.118382 15.480377 -0.164791
2010-12-07 08:11:07 51°12.512 2°50.104 12.6797 2.118172 15.480126 -0.164791
2010-12-07 08:11:12 51°12.507 2°50.096 12.6696 2.118277 15.48068 -0.129967
2010-12-07 08:11:17 51°12.504 2°50.088 12.6531 2.118067 15.479287 -0.164791
2010-12-07 08:11:22 51°12.5 2°50.081 12.6878 2.118067 15.479002 -0.164791
2010-12-07 08:11:27 51°12.497 2°50.072 12.6765 2.118067 15.479002 -0.164791
2010-12-07 08:11:32 51°12.493 2°50.064 12.6879 2.118172 15.478699 -0.164791
2010-12-07 08:11:37 51°12.489 2°50.056 12.6784 2.117961 15.477592 -0.164791
2010-12-07 08:11:41 51°12.486 2°50.05 12.6781 2.117856 15.476753 -0.129967
2010-12-07 08:11:47 51°12.482 2°50.04 12.6659 2.118277 15.479823 -0.164791
2010-12-07 08:11:52 51°12.478 2°50.033 12.6905 2.118067 15.479002 -0.164791
2010-12-07 08:11:57 51°12.474 2°50.025 12.6899 2.118067 15.479002 -0.164791
2010-12-07 08:12:01 51°12.471 2°50.019 12.6919 2.117856 15.476753 -0.164791
2010-12-07 08:12:07 51°12.467 2°50.009 12.6744 2.117856 15.477895 -0.199615
2010-12-07 08:12:12 51°12.463 2°50.001 12.7036 2.117751 15.47677 -0.164791
2010-12-07 08:12:17 51°12.459 2°49.993 12.6754 2.118067 15.478716 -0.129967
2010-12-07 08:12:22 51°12.456 2°49.986 12.6909 2.117751 15.47677 -0.129967
2010-12-07 08:12:27 51°12.452 2°49.978 12.7043 2.117751 15.47677 -0.129967
2010-12-07 08:12:32 51°12.448 2°49.97 12.681 2.117751 15.477341 -0.164791
2010-12-07 08:12:37 51°12.445 2°49.962 12.7095 2.117856 15.476753 -0.164791
2010-12-07 08:12:41 51°12.442 2°49.955 12.6948 2.117856 15.476753 -0.129967
2010-12-07 08:12:47 51°12.437 2°49.946 12.7151 2.117751 15.47677 -0.199615
2010-12-07 08:12:52 51°12.434 2°49.938 12.7182 2.117961 15.478163 -0.164791
2010-12-07 08:12:57 51°12.43 2°49.931 12.7159 2.117961 15.478163 -0.164791
2010-12-07 08:13:01 51°12.427 2°49.924 12.722 2.117541 15.477376 -0.164791
2010-12-07 08:13:07 51°12.423 2°49.915 12.7122 2.117856 15.479322 -0.164791
2010-12-07 08:13:12 51°12.419 2°49.907 12.7107 2.117646 15.478215 -0.129967
2010-12-07 08:13:17 51°12.414 2°49.899 12.7235 2.117856 15.478751 -0.164791
2010-12-07 08:13:22 51°12.411 2°49.892 12.7238 2.117751 15.47677 -0.199615
2010-12-07 08:13:27 51°12.408 2°49.884 12.7122 2.117751 15.47677 -0.199615
2010-12-07 08:13:32 51°12.405 2°49.875 12.7325 2.117646 15.476788 -0.164791
2010-12-07 08:13:37 51°12.402 2°49.867 12.6985 2.117751 15.477341 -0.164791
2010-12-07 08:13:42 51°12.398 2°49.858 12.7367 2.117436 15.476252 -0.129967
2010-12-07 08:13:47 51°12.395 2°49.85 12.7082 2.117436 15.476537 -0.164791
2010-12-07 08:13:52 51°12.392 2°49.842 12.7405 2.117646 15.478786 -0.129967
2010-12-07 08:13:57 51°12.389 2°49.834 12.7215 2.117646 15.478786 -0.129967
2010-12-07 08:14:01 51°12.387 2°49.827 12.7289 2.117541 15.477947 -0.199615
2010-12-07 08:14:07 51°12.383 2°49.817 12.7361 2.117541 15.478233 -0.164791
2010-12-07 08:14:12 51°12.38 2°49.808 12.7278 2.117961 15.480733 -0.129967
2010-12-07 08:14:17 51°12.377 2°49.8 12.7446 2.117541 15.478233 -0.164791
2010-12-07 08:14:22 51°12.374 2°49.792 12.7098 2.117436 15.476537 -0.164791
2010-12-07 08:14:27 51°12.371 2°49.784 12.7466 2.117436 15.476537 -0.164791
2010-12-07 08:14:32 51°12.367 2°49.776 12.7462 2.117331 15.476269 -0.164791
2010-12-07 08:14:37 51°12.365 2°49.767 12.7297 2.117436 15.476823 -0.129967
2010-12-07 08:14:42 51°12.361 2°49.759 12.732 2.117436 15.476823 -0.164791
2010-12-07 08:14:47 51°12.358 2°49.751 12.7616 2.117331 15.475413 -0.164791
2010-12-07 08:14:52 51°12.356 2°49.742 12.7214 2.117436 15.476252 -0.164791
2010-12-07 08:14:57 51°12.352 2°49.734 12.7606 2.117436 15.476252 -0.164791
2010-12-07 08:15:02 51°12.35 2°49.725 12.7472 2.117226 15.476287 -0.164791
2010-12-07 08:15:07 51°12.347 2°49.717 12.7653 2.117226 15.475715 -0.199615
2010-12-07 08:15:12 51°12.345 2°49.708 12.7389 2.117331 15.476269 -0.164791
2010-12-07 08:15:17 51°12.342 2°49.7 12.7629 2.11712 15.475447 -0.164791
2010-12-07 08:15:21 51°12.339 2°49.693 12.765 2.11712 15.475447 -0.129967
2010-12-07 08:15:27 51°12.336 2°49.683 12.7744 2.11712 15.475447 -0.129967
2010-12-07 08:15:32 51°12.333 2°49.674 12.7471 2.117226 15.476858 -0.164791
2010-12-07 08:15:37 51°12.329 2°49.667 12.7787 2.11712 15.475733 -0.164791
2010-12-07 08:15:42 51°12.326 2°49.658 12.7668 2.11712 15.475162 -0.164791
2010-12-07 08:15:47 51°12.324 2°49.65 12.7764 2.117226 15.476287 -0.199615
2010-12-07 08:15:52 51°12.321 2°49.642 12.7756 2.117226 15.477143 -0.164791
2010-12-07 08:15:57 51°12.318 2°49.633 12.7663 2.117226 15.477143 -0.164791
2010-12-07 08:16:01 51°12.315 2°49.627 12.7854 2.11712 15.476304 -0.199615
2010-12-07 08:16:07 51°12.312 2°49.617 12.784 2.117226 15.477143 -0.129967
2010-12-07 08:16:12 51°12.309 2°49.608 12.7893 2.11691 15.476339 -0.129967
2010-12-07 08:16:17 51°12.306 2°49.6 12.775 2.117226 15.478 -0.199615
2010-12-07 08:16:21 51°12.304 2°49.593 12.7912 2.11712 15.476875 -0.164791
2010-12-07 08:16:27 51°12.3 2°49.583 12.7815 2.11712 15.476875 -0.164791
2010-12-07 08:16:32 51°12.297 2°49.575 12.7817 2.11712 15.476875 -0.164791
2010-12-07 08:16:37 51°12.294 2°49.566 12.7872 2.117015 15.476607 -0.129967
2010-12-07 08:16:42 51°12.291 2°49.558 12.7936 2.11691 15.475197 -0.164791
2010-12-07 08:16:47 51°12.288 2°49.55 12.7772 2.116805 15.474929 -0.164791
2010-12-07 08:16:52 51°12.285 2°49.541 12.8056 2.116805 15.4755 -0.164791
2010-12-07 08:16:57 51°12.282 2°49.533 12.7961 2.116805 15.4755 -0.164791
2010-12-07 08:17:01 51°12.28 2°49.527 12.8057 2.116805 15.474929 -0.164791
2010-12-07 08:17:07 51°12.276 2°49.517 12.7964 2.11691 15.475768 -0.129967
2010-12-07 08:17:12 51°12.273 2°49.508 12.8052 2.1167 15.47466 -0.164791
2010-12-07 08:17:17 51°12.27 2°49.5 12.7686 2.116595 15.474107 -0.164791
2010-12-07 08:17:21 51°12.268 2°49.494 12.8106 2.11649 15.473839 -0.129967
2010-12-07 08:17:27 51°12.264 2°49.483 12.8136 2.11649 15.473839 -0.129967
2010-12-07 08:17:32 51°12.261 2°49.475 12.8133 2.1167 15.474375 -0.129967
2010-12-07 08:17:37 51°12.258 2°49.467 12.8187 2.116595 15.474963 -0.129967
2010-12-07 08:17:42 51°12.255 2°49.459 12.7963 2.1167 15.475803 -0.164791
2010-12-07 08:17:47 51°12.252 2°49.45 12.8192 2.116595 15.474963 -0.164791
2010-12-07 08:17:52 51°12.249 2°49.442 12.8204 2.116385 15.474142 -0.129967
2010-12-07 08:17:57 51°12.246 2°49.434 12.8237 2.116385 15.474142 -0.129967
2010-12-07 08:18:01 51°12.243 2°49.427 12.8197 2.11649 15.474695 -0.129967
2010-12-07 08:18:07 51°12.24 2°49.418 12.8296 2.11649 15.47441 -0.164791
2010-12-07 08:18:12 51°12.237 2°49.41 12.8045 2.116805 15.476356 -0.164791
2010-12-07 08:18:17 51°12.234 2°49.401 12.8292 2.116595 15.474963 -0.164791
2010-12-07 08:18:21 51°12.231 2°49.394 12.8365 2.116385 15.473285 -0.199615
2010-12-07 08:18:27 51°12.228 2°49.383 12.8343 2.116385 15.473285 -0.199615
2010-12-07 08:18:32 51°12.225 2°49.375 12.811 2.11691 15.476339 -0.129967
2010-12-07 08:18:37 51°12.222 2°49.367 12.8439 2.116279 15.472731 -0.164791
2010-12-07 08:18:42 51°12.219 2°49.358 12.8102 2.11649 15.474124 -0.164791
2010-12-07 08:18:47 51°12.216 2°49.35 12.8458 2.116069 15.472766 -0.164791
2010-12-07 08:18:52 51°12.213 2°49.342 12.8329 2.11649 15.474124 -0.164791
2010-12-07 08:18:57 51°12.21 2°49.333 12.8524 2.11649 15.474124 -0.164791
2010-12-07 08:19:01 51°12.208 2°49.327 12.8123 2.116279 15.472445 -0.164791
2010-12-07 08:19:07 51°12.204 2°49.317 12.8627 2.116174 15.472177 -0.129967
2010-12-07 08:19:12 51°12.201 2°49.308 12.8317 2.116174 15.471606 -0.164791
2010-12-07 08:19:17 51°12.198 2°49.301 12.8632 2.116174 15.473034 -0.129967
2010-12-07 08:19:21 51°12.196 2°49.293 12.8566 2.116279 15.473588 -0.164791
2010-12-07 08:19:27 51°12.192 2°49.284 12.8567 2.116279 15.473588 -0.164791
2010-12-07 08:19:32 51°12.189 2°49.275 12.8678 2.116069 15.472766 -0.164791
2010-12-07 08:19:37 51°12.186 2°49.267 12.8608 2.116069 15.47248 -0.199615
2010-12-07 08:19:42 51°12.183 2°49.259 12.8696 2.116069 15.47248 -0.164791
2010-12-07 08:19:47 51°12.18 2°49.25 12.8373 2.116279 15.473873 -0.164791
2010-12-07 08:19:52 51°12.177 2°49.242 12.8664 2.116069 15.473051 -0.199615
2010-12-07 08:19:57 51°12.174 2°49.234 12.8514 2.116069 15.473051 -0.199615
2010-12-07 08:20:02 51°12.171 2°49.225 12.8768 2.115964 15.471926 -0.164791
2010-12-07 08:20:07 51°12.168 2°49.217 12.8442 2.116069 15.471623 -0.199615
2010-12-07 08:20:12 51°12.165 2°49.209 12.8773 2.115964 15.471926 -0.164791
2010-12-07 08:20:17 51°12.161 2°49.201 12.8727 2.115859 15.471373 -0.164791
2010-12-07 08:20:22 51°12.159 2°49.192 12.8829 2.115649 15.470265 -0.164791
2010-12-07 08:20:27 51°12.155 2°49.184 12.8767 2.115649 15.470265 -0.164791
2010-12-07 08:20:32 51°12.152 2°49.176 12.881 2.116069 15.47248 -0.164791
2010-12-07 08:20:37 51°12.15 2°49.167 12.873 2.115649 15.470265 -0.164791
2010-12-07 08:20:42 51°12.147 2°49.159 12.8872 2.115754 15.470819 -0.164791
2010-12-07 08:20:47 51°12.144 2°49.151 12.8893 2.115754 15.471104 -0.164791
2010-12-07 08:20:52 51°12.14 2°49.142 12.8991 2.115859 15.471373 -0.164791
2010-12-07 08:20:57 51°12.138 2°49.134 12.8893 2.115859 15.471373 -0.164791
2010-12-07 08:21:02 51°12.135 2°49.125 12.8889 2.115859 15.471373 -0.164791
2010-12-07 08:21:07 51°12.131 2°49.117 12.8919 2.115964 15.472783 -0.164791
2010-12-07 08:21:12 51°12.129 2°49.109 12.9014 2.115649 15.471978 -0.164791
2010-12-07 08:21:17 51°12.125 2°49.101 12.882 2.115649 15.471407 -0.164791
2010-12-07 08:21:22 51°12.122 2°49.092 12.8856 2.115649 15.471407 -0.164791
2010-12-07 08:21:27 51°12.119 2°49.084 12.9083 2.115649 15.471407 -0.164791
2010-12-07 08:21:32 51°12.116 2°49.075 12.8817 2.115544 15.470568 -0.129967
2010-12-07 08:21:37 51°12.113 2°49.067 12.9092 2.115544 15.470282 -0.164791
2010-12-07 08:21:42 51°12.11 2°49.059 12.9039 2.115964 15.472212 -0.164791
2010-12-07 08:21:47 51°12.107 2°49.05 12.904 2.115649 15.470836 -0.164791
2010-12-07 08:21:52 51°12.104 2°49.042 12.8925 2.115649 15.47055 -0.164791
2010-12-07 08:21:57 51°12.101 2°49.034 12.916 2.115649 15.47055 -0.164791
2010-12-07 08:22:01 51°12.099 2°49.027 12.9064 2.115438 15.469443 -0.199615
2010-12-07 08:22:07 51°12.095 2°49.017 12.9184 2.115123 15.46721 -0.164791
2010-12-07 08:22:12 51°12.092 2°49.009 12.9013 2.115333 15.468032 -0.164791
2010-12-07 08:22:17 51°12.089 2°49.001 12.8948 2.115333 15.469174 -0.164791
2010-12-07 08:22:22 51°12.086 2°48.993 12.9191 2.115438 15.469728 -0.164791
2010-12-07 08:22:27 51°12.083 2°48.984 12.9224 2.115438 15.469728 -0.164791
2010-12-07 08:22:32 51°12.08 2°48.976 12.9257 2.115333 15.469174 -0.164791
2010-12-07 08:22:37 51°12.077 2°48.967 12.9153 2.115333 15.46946 -0.164791
2010-12-07 08:22:42 51°12.074 2°48.959 12.9305 2.115438 15.470871 -0.129967
2010-12-07 08:22:47 51°12.07 2°48.951 12.9381 2.115544 15.47171 -0.164791
2010-12-07 08:22:52 51°12.068 2°48.943 12.9292 2.115438 15.471728 -0.164791
2010-12-07 08:22:57 51°12.064 2°48.935 12.9353 2.115438 15.471728 -0.164791
2010-12-07 08:23:01 51°12.062 2°48.928 12.9177 2.115228 15.470048 -0.164791
2010-12-07 08:23:07 51°12.058 2°48.918 12.9381 2.115333 15.470317 -0.164791
2010-12-07 08:23:12 51°12.055 2°48.91 12.9229 2.115333 15.470031 -0.164791
2010-12-07 08:23:17 51°12.052 2°48.902 12.9448 2.115438 15.470871 -0.164791
2010-12-07 08:23:21 51°12.05 2°48.895 12.9419 2.115544 15.471996 -0.199615
2010-12-07 08:23:27 51°12.046 2°48.885 12.9059 2.115544 15.471996 -0.199615
2010-12-07 08:23:32 51°12.043 2°48.877 12.9492 2.115333 15.471459 -0.164791
2010-12-07 08:23:37 51°12.04 2°48.869 12.9383 2.115438 15.472013 -0.129967
2010-12-07 08:23:42 51°12.037 2°48.861 12.9466 2.115123 15.470923 -0.199615
2010-12-07 08:23:47 51°12.034 2°48.852 12.9317 2.115018 15.469797 -0.199615
2010-12-07 08:23:52 51°12.03 2°48.844 12.9425 2.115018 15.470083 -0.129967
2010-12-07 08:23:57 51°12.027 2°48.836 12.929 2.115018 15.470083 -0.129967
2010-12-07 08:24:01 51°12.025 2°48.83 12.9525 2.115228 15.470334 -0.164791
2010-12-07 08:24:07 51°12.021 2°48.819 12.9586 2.115123 15.468923 -0.164791
2010-12-07 08:24:12 51°12.018 2°48.811 12.9621 2.115123 15.46978 -0.129967
2010-12-07 08:24:17 51°12.015 2°48.803 12.9552 2.115228 15.470905 -0.164791
2010-12-07 08:24:21 51°12.012 2°48.797 12.9666 2.114913 15.469815 -0.164791
2010-12-07 08:24:27 51°12.009 2°48.786 12.9534 2.114913 15.469815 -0.164791
2010-12-07 08:24:32 51°12.006 2°48.778 12.9664 2.115018 15.469512 -0.164791
2010-12-07 08:24:37 51°12.003 2°48.77 12.9678 2.115018 15.470654 -0.164791
2010-12-07 08:24:42 51°12 2°48.762 12.9657 2.114913 15.469529 -0.199615
2010-12-07 08:24:47 51°11.997 2°48.753 12.9788 2.115123 15.470923 -0.199615
2010-12-07 08:24:52 51°11.994 2°48.745 12.9762 2.114913 15.469243 -0.129967
2010-12-07 08:24:57 51°11.991 2°48.737 12.9795 2.114913 15.469243 -0.129967
2010-12-07 08:25:02 51°11.987 2°48.729 12.9852 2.114808 15.468404 -0.164791
2010-12-07 08:25:07 51°11.984 2°48.721 12.9859 2.114703 15.46785 -0.199615
2010-12-07 08:25:12 51°11.981 2°48.712 12.9841 2.114597 15.468153 -0.164791
2010-12-07 08:25:17 51°11.978 2°48.704 12.9734 2.114492 15.467884 -0.164791
2010-12-07 08:25:22 51°11.975 2°48.696 12.9834 2.114808 15.469832 -0.164791
2010-12-07 08:25:27 51°11.972 2°48.688 12.989 2.114808 15.469832 -0.164791
2010-12-07 08:25:32 51°11.969 2°48.68 12.9975 2.114492 15.468741 -0.164791
2010-12-07 08:25:37 51°11.966 2°48.672 12.9807 2.114703 15.469564 -0.164791
2010-12-07 08:25:42 51°11.963 2°48.663 13.0041 2.114808 15.470118 -0.199615
2010-12-07 08:25:47 51°11.96 2°48.655 12.9908 2.114703 15.469278 -0.199615
2010-12-07 08:25:52 51°11.957 2°48.647 12.9975 2.114703 15.468992 -0.164791
2010-12-07 08:25:57 51°11.953 2°48.639 12.9916 2.114703 15.468992 -0.164791
2010-12-07 08:26:01 51°11.951 2°48.632 13.0041 2.114492 15.468456 -0.164791
2010-12-07 08:26:07 51°11.948 2°48.622 12.9996 2.114808 15.470403 -0.164791
2010-12-07 08:26:12 51°11.945 2°48.614 13.0064 2.114387 15.468759 -0.164791
2010-12-07 08:26:17 51°11.942 2°48.605 12.9748 2.114492 15.468741 -0.164791
2010-12-07 08:26:21 51°11.939 2°48.599 13.0062 2.114177 15.467365 -0.164791
2010-12-07 08:26:27 51°11.935 2°48.589 12.999 2.114177 15.467365 -0.164791
2010-12-07 08:26:32 51°11.932 2°48.581 13.0011 2.114387 15.468187 -0.199615
2010-12-07 08:26:37 51°11.929 2°48.573 13.0169 2.114597 15.469295 -0.164791
2010-12-07 08:26:42 51°11.926 2°48.564 13.0224 2.114387 15.467616 -0.164791
2010-12-07 08:26:47 51°11.923 2°48.556 13.0052 2.114597 15.469295 -0.164791
2010-12-07 08:26:52 51°11.92 2°48.548 13.0092 2.114387 15.467901 -0.164791
2010-12-07 08:26:57 51°11.917 2°48.539 12.9982 2.114387 15.467901 -0.164791
2010-12-07 08:27:01 51°11.914 2°48.533 13.0269 2.114597 15.468724 -0.164791
2010-12-07 08:27:07 51°11.911 2°48.523 13.0146 2.114072 15.465953 -0.164791
2010-12-07 08:27:12 51°11.908 2°48.514 13.033 2.114177 15.467079 -0.199615
2010-12-07 08:27:17 51°11.905 2°48.506 13.0312 2.114072 15.465953 -0.129967
2010-12-07 08:27:21 51°11.903 2°48.499 13.0277 2.114387 15.467616 -0.199615
2010-12-07 08:27:27 51°11.9 2°48.489 13.0291 2.114387 15.467616 -0.199615
2010-12-07 08:27:32 51°11.897 2°48.48 13.0312 2.114072 15.465953 -0.164791
2010-12-07 08:27:37 51°11.894 2°48.472 13.0398 2.114072 15.466239 -0.164791
2010-12-07 08:27:42 51°11.892 2°48.463 13.0414 2.114072 15.466525 -0.164791
2010-12-07 08:27:47 51°11.889 2°48.455 13.0397 2.113862 15.465988 -0.164791
2010-12-07 08:27:52 51°11.886 2°48.446 13.0388 2.114177 15.468222 -0.199615
2010-12-07 08:27:57 51°11.884 2°48.437 13.0356 2.114177 15.468222 -0.199615
2010-12-07 08:28:01 51°11.882 2°48.431 13.0433 2.113967 15.466828 -0.199615
2010-12-07 08:28:07 51°11.879 2°48.42 13.0504 2.113967 15.467113 -0.129967
2010-12-07 08:28:12 51°11.876 2°48.412 13.0525 2.113862 15.466559 -0.129967
2010-12-07 08:28:17 51°11.874 2°48.403 13.0289 2.113967 15.466828 -0.199615
2010-12-07 08:28:21 51°11.872 2°48.396 13.0633 2.113862 15.466274 -0.129967
2010-12-07 08:28:27 51°11.87 2°48.385 13.0242 2.113862 15.466274 -0.129967
2010-12-07 08:28:32 51°11.867 2°48.376 13.0427 2.113756 15.465434 -0.164791
2010-12-07 08:28:37 51°11.865 2°48.368 13.0692 2.114072 15.467096 -0.199615
2010-12-07 08:28:42 51°11.863 2°48.359 13.043 2.113967 15.466256 -0.129967
2010-12-07 08:28:47 51°11.861 2°48.35 13.0748 2.113862 15.466274 -0.164791
2010-12-07 08:28:52 51°11.859 2°48.341 13.0644 2.113862 15.465988 -0.199615
2010-12-07 08:28:57 51°11.857 2°48.332 13.0805 2.113862 15.465988 -0.199615
2010-12-07 08:29:01 51°11.856 2°48.325 13.0485 2.113651 15.465451 -0.164791
2010-12-07 08:29:07 51°11.853 2°48.314 13.0775 2.113651 15.465451 -0.129967
2010-12-07 08:29:12 51°11.851 2°48.305 13.0622 2.114072 15.468525 -0.164791
2010-12-07 08:29:17 51°11.849 2°48.296 13.0739 2.113441 15.4652 -0.164791
2010-12-07 08:29:21 51°11.848 2°48.289 13.0655 2.113756 15.466291 -0.164791
2010-12-07 08:29:27 51°11.846 2°48.279 13.0773 2.113756 15.466291 -0.164791
2010-12-07 08:29:32 51°11.844 2°48.269 13.0827 2.113336 15.464645 -0.199615
2010-12-07 08:29:37 51°11.842 2°48.261 13.0771 2.113546 15.465182 -0.164791
2010-12-07 08:29:42 51°11.841 2°48.252 13.0958 2.113441 15.4652 -0.164791
2010-12-07 08:29:47 51°11.839 2°48.243 13.084 2.113651 15.466308 -0.164791
2010-12-07 08:29:52 51°11.838 2°48.234 13.072 2.113546 15.465468 -0.164791
2010-12-07 08:29:57 51°11.836 2°48.225 13.0543 2.113546 15.465468 -0.164791
2010-12-07 08:30:02 51°11.834 2°48.216 13.0891 2.113336 15.464645 -0.164791
2010-12-07 08:30:07 51°11.832 2°48.207 13.0686 2.113967 15.467113 -0.164791
2010-12-07 08:30:12 51°11.831 2°48.198 13.0663 2.113336 15.463788 -0.164791
2010-12-07 08:30:17 51°11.829 2°48.189 13.0977 2.113021 15.462411 -0.164791
2010-12-07 08:30:22 51°11.827 2°48.18 13.0874 2.113441 15.4652 -0.164791
2010-12-07 08:30:27 51°11.826 2°48.171 13.0989 2.113441 15.4652 -0.164791
2010-12-07 08:30:32 51°11.824 2°48.162 13.1047 2.113021 15.462697 -0.199615
2010-12-07 08:30:37 51°11.822 2°48.153 13.1018 2.113441 15.464914 -0.199615
2010-12-07 08:30:42 51°11.821 2°48.144 13.0974 2.113126 15.463251 -0.129967
2010-12-07 08:30:47 51°11.819 2°48.136 13.1029 2.113021 15.463268 -0.164791
2010-12-07 08:30:52 51°11.817 2°48.126 13.1049 2.113441 15.4652 -0.164791
2010-12-07 08:30:57 51°11.815 2°48.118 13.0967 2.113441 15.4652 -0.164791
2010-12-07 08:31:01 51°11.814 2°48.11 13.0809 2.113021 15.463554 -0.199615
2010-12-07 08:31:07 51°11.811 2°48.1 13.0977 2.113126 15.463537 -0.164791
2010-12-07 08:31:12 51°11.81 2°48.091 13.1153 2.113441 15.466343 -0.164791
2010-12-07 08:31:17 51°11.808 2°48.082 13.0611 2.113021 15.46384 -0.199615
2010-12-07 08:31:21 51°11.807 2°48.075 13.1086 2.11281 15.463017 -0.199615
2010-12-07 08:31:27 51°11.805 2°48.064 13.0713 2.11281 15.463017 -0.199615
2010-12-07 08:31:32 51°11.804 2°48.055 13.1149 2.11281 15.462731 -0.164791
2010-12-07 08:31:37 51°11.802 2°48.046 13.0958 2.113441 15.465771 -0.164791
2010-12-07 08:31:42 51°11.801 2°48.037 13.1156 2.11281 15.463303 -0.164791
2010-12-07 08:31:47 51°11.8 2°48.027 13.1078 2.11281 15.463588 -0.199615
2010-12-07 08:31:52 51°11.798 2°48.018 13.125 2.113126 15.465823 -0.164791
2010-12-07 08:31:57 51°11.797 2°48.009 13.0935 2.113126 15.465823 -0.164791
2010-12-07 08:32:01 51°11.796 2°48.002 13.1259 2.112916 15.465572 -0.164791
2010-12-07 08:32:07 51°11.795 2°47.991 13.0887 2.113231 15.467521 -0.199615
2010-12-07 08:32:12 51°11.794 2°47.982 13.1283 2.112916 15.466715 -0.199615
2010-12-07 08:32:17 51°11.792 2°47.973 13.1093 2.112705 15.464463 -0.129967
2010-12-07 08:32:21 51°11.791 2°47.966 13.1351 2.112916 15.466144 -0.164791
2010-12-07 08:32:27 51°11.79 2°47.955 13.1287 2.112916 15.466144 -0.164791
2010-12-07 08:32:32 51°11.789 2°47.946 13.1382 2.112916 15.465858 -0.164791
2010-12-07 08:32:37 51°11.788 2°47.936 13.1205 2.11281 15.465303 -0.164791
2010-12-07 08:32:42 51°11.786 2°47.927 13.1442 2.1126 15.464766 -0.164791
2010-12-07 08:32:47 51°11.785 2°47.918 13.1198 2.113021 15.466984 -0.199615
2010-12-07 08:32:52 51°11.784 2°47.909 13.1476 2.11281 15.466447 -0.199615
2010-12-07 08:32:57 51°11.783 2°47.9 13.1399 2.11281 15.466447 -0.199615
2010-12-07 08:33:02 51°11.782 2°47.891 13.1468 2.112916 15.467001 -0.199615
2010-12-07 08:33:07 51°11.781 2°47.882 13.1324 2.1126 15.465338 -0.199615
2010-12-07 08:33:12 51°11.779 2°47.873 13.1501 2.112495 15.465355 -0.129967
2010-12-07 08:33:17 51°11.778 2°47.864 13.1355 2.112705 15.465892 -0.164791
2010-12-07 08:33:22 51°11.777 2°47.855 13.1488 2.1126 15.465338 -0.164791
2010-12-07 08:33:27 51°11.776 2°47.846 13.1322 2.1126 15.465338 -0.164791
2010-12-07 08:33:32 51°11.775 2°47.837 13.1649 2.11239 15.463371 -0.164791
2010-12-07 08:33:37 51°11.774 2°47.827 13.1551 2.112495 15.46364 -0.164791
2010-12-07 08:33:42 51°11.772 2°47.818 13.1601 2.1126 15.465052 -0.199615
2010-12-07 08:33:47 51°11.771 2°47.809 13.1656 2.112285 15.463961 -0.129967
2010-12-07 08:33:52 51°11.77 2°47.8 13.1603 2.112495 15.465927 -0.164791
2010-12-07 08:33:57 51°11.769 2°47.791 13.1666 2.112495 15.465927 -0.164791
2010-12-07 08:34:01 51°11.768 2°47.784 13.1431 2.1126 15.466196 -0.164791
2010-12-07 08:34:07 51°11.766 2°47.773 13.1686 2.112075 15.464281 -0.129967
2010-12-07 08:34:12 51°11.765 2°47.763 13.1375 2.112495 15.465641 -0.164791
2010-12-07 08:34:17 51°11.764 2°47.754 13.1653 2.112285 15.464532 -0.164791
2010-12-07 08:34:21 51°11.763 2°47.747 13.1533 2.111969 15.462297 -0.199615
2010-12-07 08:34:27 51°11.761 2°47.736 13.1761 2.111969 15.462297 -0.199615
2010-12-07 08:34:32 51°11.76 2°47.727 13.1426 2.112285 15.463103 -0.164791
2010-12-07 08:34:37 51°11.759 2°47.718 13.1826 2.112074 15.461422 -0.164791
2010-12-07 08:34:42 51°11.758 2°47.709 13.1465 2.112285 15.461674 -0.164791
2010-12-07 08:34:47 51°11.757 2°47.699 13.1797 2.111969 15.46001 -0.129967
2010-12-07 08:34:52 51°11.757 2°47.69 13.1679 2.112285 15.461388 -0.164791
2010-12-07 08:34:57 51°11.756 2°47.682 13.1707 2.112285 15.461388 -0.164791
2010-12-07 08:35:02 51°11.756 2°47.672 13.181 2.111969 15.461439 -0.164791
2010-12-07 08:35:07 51°11.755 2°47.663 13.1605 2.111969 15.461439 -0.164791
2010-12-07 08:35:12 51°11.756 2°47.654 13.1638 2.111759 15.461188 -0.164791
2010-12-07 08:35:17 51°11.756 2°47.645 13.1849 2.111654 15.460633 -0.164791
2010-12-07 08:35:22 51°11.756 2°47.636 13.186 2.111759 15.461474 -0.199615
2010-12-07 08:35:27 51°11.756 2°47.628 13.1794 2.111759 15.461474 -0.199615
2010-12-07 08:35:32 51°11.756 2°47.619 13.1942 2.111759 15.463475 -0.164791
2010-12-07 08:35:37 51°11.757 2°47.611 13.174 2.111759 15.462903 -0.164791
2010-12-07 08:35:42 51°11.757 2°47.602 13.2012 2.111759 15.463475 -0.164791
2010-12-07 08:35:47 51°11.757 2°47.594 13.1912 2.111969 15.464299 -0.164791
2010-12-07 08:35:52 51°11.757 2°47.586 13.2064 2.111654 15.463207 -0.164791
2010-12-07 08:35:57 51°11.757 2°47.578 13.1974 2.111654 15.463207 -0.164791
2010-12-07 08:36:02 51°11.757 2°47.57 13.2039 2.111969 15.464584 -0.164791
2010-12-07 08:36:07 51°11.758 2°47.562 13.2075 2.111654 15.462921 -0.199615
2010-12-07 08:36:12 51°11.757 2°47.555 13.206 2.111759 15.464333 -0.164791
2010-12-07 08:36:17 51°11.758 2°47.547 13.2077 2.111549 15.46351 -0.199615
2010-12-07 08:36:21 51°11.758 2°47.541 13.2136 2.111339 15.463831 -0.164791
2010-12-07 08:36:27 51°11.758 2°47.532 13.225 2.111339 15.463831 -0.164791
2010-12-07 08:36:32 51°11.758 2°47.524 13.2115 2.111654 15.465495 -0.129967
2010-12-07 08:36:37 51°11.758 2°47.517 13.2214 2.111444 15.463814 -0.164791
2010-12-07 08:36:42 51°11.758 2°47.509 13.2212 2.111549 15.463796 -0.199615
2010-12-07 08:36:47 51°11.758 2°47.502 13.2225 2.111339 15.462973 -0.164791
2010-12-07 08:36:52 51°11.758 2°47.494 13.225 2.111444 15.462955 -0.199615
2010-12-07 08:36:57 51°11.758 2°47.487 13.2258 2.111444 15.462955 -0.199615
2010-12-07 08:37:01 51°11.758 2°47.481 13.223 2.111444 15.463527 -0.164791
2010-12-07 08:37:07 51°11.757 2°47.472 13.2261 2.111339 15.463259 -0.164791
2010-12-07 08:37:12 51°11.757 2°47.465 13.2275 2.111549 15.464368 -0.164791
2010-12-07 08:37:17 51°11.757 2°47.458 13.2314 2.111234 15.463562 -0.199615
2010-12-07 08:37:22 51°11.757 2°47.451 13.2308 2.111234 15.463276 -0.164791
2010-12-07 08:37:27 51°11.756 2°47.444 13.2424 2.111234 15.463276 -0.164791
2010-12-07 08:37:32 51°11.756 2°47.436 13.2327 2.111234 15.463562 -0.164791
2010-12-07 08:37:37 51°11.756 2°47.429 13.2478 2.111128 15.462722 -0.199615
2010-12-07 08:37:42 51°11.756 2°47.422 13.2271 2.111128 15.462722 -0.164791
2010-12-07 08:37:47 51°11.756 2°47.415 13.253 2.111023 15.462453 -0.164791
2010-12-07 08:37:52 51°11.756 2°47.408 13.2396 2.111023 15.462739 -0.164791
2010-12-07 08:37:57 51°11.756 2°47.401 13.2525 2.111023 15.462739 -0.164791
2010-12-07 08:38:01 51°11.757 2°47.395 13.2452 2.111023 15.462453 -0.164791
2010-12-07 08:38:07 51°11.756 2°47.386 13.2499 2.110918 15.46247 -0.164791
2010-12-07 08:38:12 51°11.757 2°47.379 13.2519 2.111023 15.462739 -0.199615
2010-12-07 08:38:17 51°11.757 2°47.372 13.2505 2.110708 15.461361 -0.164791
2010-12-07 08:38:21 51°11.757 2°47.367 13.2608 2.110813 15.462202 -0.164791
2010-12-07 08:38:27 51°11.757 2°47.358 13.2442 2.110813 15.462202 -0.164791
2010-12-07 08:38:32 51°11.757 2°47.351 13.2553 2.110918 15.462756 -0.164791
2010-12-07 08:38:37 51°11.758 2°47.344 13.2593 2.110813 15.461916 -0.164791
2010-12-07 08:38:42 51°11.758 2°47.337 13.2697 2.110813 15.461629 -0.199615
2010-12-07 08:38:47 51°11.759 2°47.33 13.265 2.110918 15.46247 -0.164791
2010-12-07 08:38:52 51°11.759 2°47.323 13.2733 2.110498 15.460251 -0.164791
2010-12-07 08:38:57 51°11.76 2°47.316 13.2604 2.110498 15.460251 -0.164791
2010-12-07 08:39:02 51°11.76 2°47.31 13.2784 2.110498 15.459965 -0.199615
2010-12-07 08:39:07 51°11.761 2°47.303 13.2599 2.110393 15.459696 -0.164791
2010-12-07 08:39:12 51°11.762 2°47.296 13.2728 2.110498 15.459965 -0.164791
2010-12-07 08:39:17 51°11.763 2°47.29 13.2816 2.110498 15.460823 -0.164791
2010-12-07 08:39:22 51°11.764 2°47.283 13.2764 2.110287 15.459714 -0.164791
2010-12-07 08:39:27 51°11.765 2°47.277 13.2718 2.110287 15.459714 -0.164791
2010-12-07 08:39:32 51°11.766 2°47.271 13.2805 2.110393 15.460268 -0.164791
2010-12-07 08:39:37 51°11.768 2°47.264 13.2832 2.110498 15.461396 -0.164791
2010-12-07 08:39:42 51°11.769 2°47.258 13.2814 2.110287 15.460572 -0.199615
2010-12-07 08:39:47 51°11.771 2°47.252 13.2776 2.110287 15.460572 -0.164791
2010-12-07 08:39:52 51°11.773 2°47.246 13.2868 2.110287 15.460286 -0.164791
2010-12-07 08:39:57 51°11.774 2°47.24 13.2762 2.110287 15.460286 -0.164791
2010-12-07 08:40:01 51°11.775 2°47.235 13.2989 2.110182 15.459445 -0.199615
2010-12-07 08:40:07 51°11.777 2°47.229 13.2813 2.110287 15.459428 -0.164791
2010-12-07 08:40:12 51°11.779 2°47.223 13.2993 2.110077 15.458604 -0.164791
2010-12-07 08:40:17 51°11.78 2°47.218 13.2819 2.109972 15.457763 -0.199615
2010-12-07 08:40:21 51°11.781 2°47.214 13.2883 2.109972 15.458621 -0.164791
2010-12-07 08:40:27 51°11.784 2°47.207 13.3013 2.109972 15.458621 -0.164791
2010-12-07 08:40:32 51°11.785 2°47.202 13.3087 2.110077 15.459462 -0.199615
2010-12-07 08:40:37 51°11.787 2°47.197 13.3079 2.110077 15.459462 -0.164791
2010-12-07 08:40:42 51°11.788 2°47.192 13.3194 2.109867 15.458638 -0.164791
2010-12-07 08:40:47 51°11.79 2°47.187 13.3137 2.110077 15.459462 -0.199615
2010-12-07 08:40:52 51°11.792 2°47.182 13.3191 2.109972 15.459766 -0.199615
2010-12-07 08:40:57 51°11.794 2°47.177 13.2232 2.109972 15.459766 -0.199615
2010-12-07 08:41:02 51°11.798 2°47.171 13.2037 2.109867 15.458352 -0.164791
2010-12-07 08:41:07 51°11.802 2°47.167 13.1748 2.110287 15.457997 -0.129967
2010-12-07 08:41:12 51°11.807 2°47.163 13.1872 2.109867 15.451203 -0.199615
2010-12-07 08:41:17 51°11.811 2°47.161 13.2031 2.109446 15.447841 -0.164791
2010-12-07 08:41:22 51°11.817 2°47.16 13.2101 2.109236 15.448446 -0.129967
2010-12-07 08:41:27 51°11.822 2°47.161 13.2152 2.109236 15.448446 -0.129967
2010-12-07 08:41:32 51°11.827 2°47.163 13.2246 2.109446 15.4527 -0.199615
2010-12-07 08:41:37 51°11.832 2°47.166 13.231 2.109236 15.455309 -0.164791
2010-12-07 08:41:42 51°11.835 2°47.172 13.2371 2.109447 15.458708 -0.164791
2010-12-07 08:41:47 51°11.839 2°47.178 13.2401 2.109552 15.461839 -0.199615
2010-12-07 08:41:52 51°11.842 2°47.184 13.241 2.109552 15.463557 -0.164791
2010-12-07 08:41:57 51°11.843 2°47.19 13.2437 2.109552 15.463557 -0.164791
2010-12-07 08:42:01 51°11.844 2°47.195 13.2441 2.109657 15.467263 -0.164791
2010-12-07 08:42:07 51°11.846 2°47.202 13.2546 2.109762 15.471257 -0.129967
2010-12-07 08:42:12 51°11.847 2°47.207 13.2665 2.109972 15.475521 -0.199615
2010-12-07 08:42:17 51°11.848 2°47.212 13.274 2.110078 15.476937 -0.199615
2010-12-07 08:42:21 51°11.848 2°47.215 13.2829 2.109867 15.474966 -0.164791
2010-12-07 08:42:27 51°11.848 2°47.22 13.2913 2.109867 15.474966 -0.164791
2010-12-07 08:42:32 51°11.849 2°47.224 13.2974 2.109867 15.473532 -0.164791
2010-12-07 08:42:37 51°11.849 2°47.228 13.298 2.109867 15.471812 -0.164791
2010-12-07 08:42:42 51°11.849 2°47.231 13.3024 2.109552 15.468427 -0.199615
2010-12-07 08:42:47 51°11.849 2°47.234 13.304 2.109552 15.466994 -0.199615
2010-12-07 08:42:52 51°11.849 2°47.238 13.3091 2.109447 15.46558 -0.164791
2010-12-07 08:42:57 51°11.849 2°47.24 13.3083 2.109447 15.46558 -0.164791
2010-12-07 08:43:01 51°11.848 2°47.242 13.3125 2.109341 15.464165 -0.164791
2010-12-07 08:43:07 51°11.848 2°47.246 13.3122 2.109341 15.464452 -0.164791
2010-12-07 08:43:12 51°11.847 2°47.248 13.3151 2.109131 15.463628 -0.164791
2010-12-07 08:43:17 51°11.847 2°47.25 13.3134 2.109026 15.463073 -0.199615
2010-12-07 08:43:21 51°11.847 2°47.252 13.3193 2.109026 15.463359 -0.129967
2010-12-07 08:43:27 51°11.847 2°47.254 13.3187 2.109026 15.463359 -0.129967
2010-12-07 08:43:32 51°11.846 2°47.256 13.3191 2.109026 15.463359 -0.164791
2010-12-07 08:43:37 51°11.846 2°47.257 13.3253 2.109026 15.463359 -0.164791
2010-12-07 08:43:42 51°11.845 2°47.259 13.3239 2.109026 15.463073 -0.164791
2010-12-07 08:43:47 51°11.844 2°47.261 13.3311 2.108816 15.461962 -0.164791